UA1154 / N69813 7700 Squawk Report (30th of July, 2021)

Aircraft B739 Reg No. N69813 Age 7 years old
Model 737 Jet engines 2 First flight 20-01-14
Registered 05-12-13 Rollout N/A Delivered 03-02-14
Construction No. 43531 Line No. 4773 Series 924(ER)
ADSHEX A94B05 Airline name United Airlines Owner N/A
Airfield based Houston-George Bush Intercontinental~TX~N First tracked N/A

Flight history for N69813

Route Flight No Date Playback
Chicago Ohare Intl (ORD) - McCarran Intl (LAS) UA2391 2021-09-18 07:06:00
Denver Intl (DEN) - Chicago Ohare Intl (ORD) UA387 2021-09-18 03:32:00
San Diego Intl (SAN) - Denver Intl (DEN) UA264 2021-09-17 20:40:00
George Bush Intercontinental (IAH) - San Diego Intl (SAN) UA2358 2021-09-17 18:38:00
Philadelphia Intl (PHL) - George Bush Intercontinental (IAH) UA2413 2021-09-15 22:47:00
George Bush Intercontinental (IAH) - Philadelphia Intl (PHL) UA1170 2021-09-15 18:33:00
Cancun Intl (CUN) - George Bush Intercontinental (IAH) UA1056 2021-09-14 23:09:00
George Bush Intercontinental (IAH) - Cancun Intl (CUN) UA1018 2021-09-14 20:57:00
Cancun Intl (CUN) - George Bush Intercontinental (IAH) UA1832 2021-09-14 15:24:00
George Bush Intercontinental (IAH) - Cancun Intl (CUN) UA1020 2021-09-13 22:13:00
San Francisco Intl (SFO) - George Bush Intercontinental (IAH) UA2094 2021-09-13 20:08:00
Portland Intl (PDX) - San Francisco Intl (SFO) UA1562 2021-09-13 14:30:00
San Francisco Intl (SFO) - Portland Intl (PDX) UA1579 2021-09-13 06:57:00
San Diego Intl (SAN) - San Francisco Intl (SFO) UA1761 2021-09-13 03:30:00
San Francisco Intl (SFO) - San Diego Intl (SAN) UA353 2021-09-13 02:09:00
McCarran Intl (LAS) - San Francisco Intl (SFO) UA1497 2021-09-12 23:41:00
Washington Dulles International (IAD) - McCarran Intl (LAS) UA2416 2021-09-12 20:50:00
San Diego Intl (SAN) - Washington Dulles International (IAD) UA2129 2021-09-11 09:02:00
Washington Dulles International (IAD) - San Diego Intl (SAN) UA2303 2021-09-11 03:03:00
Punta Cana (PUJ) - Washington Dulles International (IAD) UA1669 2021-09-10 19:33:00
Time Lat Lon Altitude Heading Speed Vertical Rate
2021-07-30 16:56:49 GMT 24.282499 -87.144722 36,000 210 475
2021-07-30 16:55:49 GMT 24.394722 -87.071388 36,000 210 476
2021-07-30 16:54:49 GMT 24.531944 -86.982498 36,000 210 476
2021-07-30 16:53:46 GMT 24.647778 -86.906944 36,000 210 476
2021-07-30 16:52:46 GMT 24.760834 -86.833336 36,000 210 475
2021-07-30 16:51:43 GMT 24.874443 -86.758888 36,000 210 474
2021-07-30 16:50:43 GMT 24.990278 -86.683060 36,000 210 473
2021-07-30 16:49:43 GMT 25.102501 -86.609444 36,000 210 471
2021-07-30 16:48:40 GMT 25.216110 -86.534721 36,000 210 470
2021-07-30 16:47:40 GMT 25.329166 -86.459999 36,000 210 469
2021-07-30 16:46:40 GMT 25.441944 -86.385277 36,000 210 468
2021-07-30 16:45:37 GMT 25.568611 -86.301666 36,000 210 468
2021-07-30 16:44:37 GMT 25.679443 -86.228058 36,000 211 469
2021-07-30 16:43:36 GMT 25.790277 -86.154167 36,000 211 471
2021-07-30 16:43:20 GMT 25.815277 -86.137497 36,000 211 473
2021-07-30 16:42:33 GMT 25.902779 -86.078888 36,000 212 475
We lost coverage of the aircraft here for a total of 6 minutes
2021-07-30 16:36:36 GMT 26.446655 -85.470627 36,000 230 489 64
2021-07-30 16:36:34 GMT 26.450958 -85.465134 36,000 230 489 64
2021-07-30 16:31:34 GMT 26.889359 -84.897369 36,000 230 486 0
2021-07-30 16:31:27 GMT 26.902212 -84.880531 36,000 230 486 0
2021-07-30 16:31:21 GMT 26.909382 -84.871178 36,000 230 486 0
2021-07-30 16:31:17 GMT 26.914782 -84.864105 36,000 230 485 0
2021-07-30 16:31:05 GMT 26.933216 -84.840019 36,000 230 485 0
2021-07-30 16:30:57 GMT 26.944290 -84.825439 36,000 230 485 0
2021-07-30 16:30:46 GMT 26.960495 -84.804245 36,000 230 485 0
2021-07-30 16:30:31 GMT 26.982096 -84.775948 36,000 230 485 0
2021-07-30 16:30:28 GMT 26.986612 -84.770035 36,000 230 485 0
2021-07-30 16:30:25 GMT 26.990982 -84.764290 36,000 230 485 0
2021-07-30 16:30:19 GMT 27.001190 -84.750916 36,000 230 485 0
2021-07-30 16:30:05 GMT 27.020641 -84.725555 36,000 230 485 0
2021-07-30 16:29:57 GMT 27.031162 -84.711876 36,000 230 484 -64
2021-07-30 16:29:29 GMT 27.072922 -84.657173 36,000 230 483 0
2021-07-30 16:29:27 GMT 27.077133 -84.651627 36,000 230 483 0
2021-07-30 16:29:19 GMT 27.087675 -84.637718 36,000 230 482 0
2021-07-30 16:29:16 GMT 27.091913 -84.632225 36,000 230 482 0
2021-07-30 16:29:08 GMT 27.103178 -84.617386 36,000 230 482 0
2021-07-30 16:29:05 GMT 27.109131 -84.609596 36,000 230 481 0
2021-07-30 16:28:57 GMT 27.118216 -84.597633 36,000 230 481 0
2021-07-30 16:28:54 GMT 27.123138 -84.591148 36,000 230 481 0
2021-07-30 16:28:48 GMT 27.132706 -84.578613 36,000 230 481 0
2021-07-30 16:28:38 GMT 27.146301 -84.560837 36,000 230 480 -64
2021-07-30 16:28:31 GMT 27.156433 -84.547562 36,000 230 480 0
2021-07-30 16:28:26 GMT 27.163183 -84.538635 36,000 230 480 0
2021-07-30 16:28:22 GMT 27.171112 -84.528236 36,000 230 479 0
2021-07-30 16:28:11 GMT 27.185669 -84.509109 36,000 230 479 0
2021-07-30 16:28:03 GMT 27.198610 -84.492096 36,000 230 478 0
2021-07-30 16:28:00 GMT 27.201508 -84.488281 36,000 230 478 0
2021-07-30 16:27:56 GMT 27.207367 -84.480560 36,000 230 478 0
2021-07-30 16:27:50 GMT 27.217163 -84.467659 36,000 230 478 0
2021-07-30 16:27:45 GMT 27.222073 -84.461250 36,000 230 478 0
2021-07-30 16:27:41 GMT 27.230255 -84.450455 36,000 230 478 0
2021-07-30 16:27:35 GMT 27.237167 -84.441383 36,000 230 478 0
2021-07-30 16:27:30 GMT 27.246048 -84.429672 36,000 230 478 0
2021-07-30 16:27:26 GMT 27.251678 -84.422318 36,000 230 478 0
2021-07-30 16:27:22 GMT 27.256989 -84.415321 36,000 230 478 0
2021-07-30 16:27:19 GMT 27.260712 -84.410393 36,000 230 477 0
2021-07-30 16:27:14 GMT 27.266556 -84.402672 36,000 230 477 64
2021-07-30 16:27:09 GMT 27.275299 -84.391113 36,000 230 477 0
2021-07-30 16:27:00 GMT 27.287619 -84.374893 36,000 230 477 -64
2021-07-30 16:26:57 GMT 27.291916 -84.369247 36,000 230 477 -64
2021-07-30 16:26:50 GMT 27.303223 -84.354324 36,000 230 476 0
2021-07-30 16:26:47 GMT 27.305914 -84.350754 36,000 230 476 0
2021-07-30 16:26:43 GMT 27.311783 -84.343025 36,000 230 476 64
2021-07-30 16:26:39 GMT 27.317047 -84.336029 36,000 230 474 0
2021-07-30 16:26:36 GMT 27.322311 -84.329086 36,000 230 476 64
2021-07-30 16:26:33 GMT 27.326303 -84.323769 36,000 230 476 64
2021-07-30 16:26:29 GMT 27.332169 -84.316055 36,000 230 476 64
2021-07-30 16:26:26 GMT 27.335148 -84.312096 36,000 230 476 64
2021-07-30 16:26:21 GMT 27.343155 -84.301582 36,000 230 476 0
2021-07-30 16:26:18 GMT 27.346710 -84.296852 36,000 230 475 0
2021-07-30 16:26:15 GMT 27.352386 -84.289337 36,000 230 474 0
2021-07-30 16:26:09 GMT 27.361084 -84.277832 36,000 230 474 0
2021-07-30 16:26:06 GMT 27.364655 -84.273170 36,000 230 474 0
2021-07-30 16:26:01 GMT 27.371750 -84.263741 36,000 230 474 0
2021-07-30 16:25:56 GMT 27.380163 -84.252670 36,000 230 474 0
2021-07-30 16:25:51 GMT 27.385239 -84.245911 36,000 230 474 0
2021-07-30 16:25:48 GMT 27.390638 -84.238724 36,000 230 474 0
2021-07-30 16:25:45 GMT 27.394781 -84.233284 36,000 230 474 0
2021-07-30 16:25:40 GMT 27.401871 -84.223885 36,000 230 474 0
2021-07-30 16:25:35 GMT 27.409447 -84.213905 36,000 230 474 0
2021-07-30 16:25:28 GMT 27.419687 -84.200378 36,000 230 474 -64
2021-07-30 16:25:24 GMT 27.424210 -84.194344 36,000 230 474 -64
2021-07-30 16:25:21 GMT 27.429749 -84.187042 36,000 230 474 0
2021-07-30 16:25:16 GMT 27.437004 -84.177406 36,000 230 474 64
2021-07-30 16:25:13 GMT 27.439407 -84.174187 36,000 230 474 64
2021-07-30 16:25:07 GMT 27.449478 -84.160820 36,000 230 474 0
2021-07-30 16:25:04 GMT 27.453461 -84.155586 36,000 230 474 0
2021-07-30 16:24:59 GMT 27.458542 -84.148796 36,000 230 474 0
2021-07-30 16:24:56 GMT 27.464796 -84.140533 36,000 230 474 0
2021-07-30 16:24:53 GMT 27.468475 -84.135635 36,000 230 474 0
2021-07-30 16:24:50 GMT 27.473036 -84.129601 36,000 230 474 0
2021-07-30 16:24:46 GMT 27.483231 -84.116028 36,000 230 474 -64
2021-07-30 16:24:43 GMT 27.483231 -84.116028 36,000 230 474 0
2021-07-30 16:24:38 GMT 27.490307 -84.106628 36,000 230 474 0
2021-07-30 16:24:34 GMT 27.494156 -84.101532 36,000 230 474 0
2021-07-30 16:24:31 GMT 27.499100 -84.094955 36,000 230 474 0
2021-07-30 16:24:27 GMT 27.504459 -84.087822 36,000 230 474 0
2021-07-30 16:24:24 GMT 27.510092 -84.080269 36,000 230 474 0
2021-07-30 16:24:19 GMT 27.517181 -84.070854 36,000 230 473 0
2021-07-30 16:24:14 GMT 27.523407 -84.062561 36,000 230 473 64
2021-07-30 16:24:10 GMT 27.528200 -84.056129 36,000 230 474 64
2021-07-30 16:24:07 GMT 27.532288 -84.050697 36,000 230 474 0
2021-07-30 16:24:04 GMT 27.538788 -84.042046 36,000 230 473 0
2021-07-30 16:24:00 GMT 27.542166 -84.037483 36,000 230 474 -64
2021-07-30 16:23:56 GMT 27.547852 -84.029968 36,000 230 473 0
2021-07-30 16:23:51 GMT 27.557016 -84.017731 36,000 230 473 0
2021-07-30 16:23:47 GMT 27.563232 -84.009445 36,000 230 474 0
2021-07-30 16:23:42 GMT 27.570328 -84.000015 36,000 230 474 -64
2021-07-30 16:23:39 GMT 27.572571 -83.997009 36,000 230 473 -64
2021-07-30 16:23:35 GMT 27.577545 -83.990425 36,000 230 473 0
2021-07-30 16:23:30 GMT 27.586716 -83.978195 36,000 230 473 -64
2021-07-30 16:23:25 GMT 27.593792 -83.968773 36,000 230 473 -64
2021-07-30 16:23:20 GMT 27.599192 -83.961639 36,000 230 473 -64
2021-07-30 16:23:17 GMT 27.603289 -83.956200 36,025 230 472 -64
2021-07-30 16:23:10 GMT 27.614456 -83.941353 36,025 230 472 -64
2021-07-30 16:23:04 GMT 27.624050 -83.928574 35,975 230 471 640
2021-07-30 16:23:01 GMT 27.626890 -83.924828 35,950 230 471 832
2021-07-30 16:22:53 GMT 27.637459 -83.910721 35,875 230 471 1024
2021-07-30 16:22:49 GMT 27.644348 -83.901482 35,750 230 472 1024
2021-07-30 16:22:43 GMT 27.651810 -83.891495 35,675 230 472 960
2021-07-30 16:22:39 GMT 27.657150 -83.884361 35,600 230 472 960
2021-07-30 16:22:36 GMT 27.660967 -83.879242 35,575 230 472 960
2021-07-30 16:22:33 GMT 27.665771 -83.872841 35,525 230 472 896
2021-07-30 16:22:27 GMT 27.676189 -83.858910 35,400 230 472 896
2021-07-30 16:22:24 GMT 27.678144 -83.856262 35,375 231 472 896
2021-07-30 16:22:20 GMT 27.685867 -83.845894 35,300 231 472 960
2021-07-30 16:22:16 GMT 27.690079 -83.840248 35,250 231 472 960
2021-07-30 16:22:13 GMT 27.695023 -83.833611 35,200 231 472 960
2021-07-30 16:22:09 GMT 27.700058 -83.826820 35,125 231 472 896
2021-07-30 16:22:06 GMT 27.703445 -83.822311 35,100 231 472 896
2021-07-30 16:22:03 GMT 27.709076 -83.814751 35,025 231 472 960
2021-07-30 16:22:00 GMT 27.713013 -83.809464 35,000 231 472 1024
2021-07-30 16:21:57 GMT 27.717499 -83.803398 34,925 231 472 1024
2021-07-30 16:21:52 GMT 27.724510 -83.793991 34,350 231 472 896
2021-07-30 16:21:47 GMT 27.730982 -83.785278 34,775 231 472 960
2021-07-30 16:21:44 GMT 27.734055 -83.781105 34,750 231 472 960
2021-07-30 16:21:40 GMT 27.739920 -83.773186 34,675 231 472 960
2021-07-30 16:21:37 GMT 27.745560 -83.765625 34,600 231 472 960
2021-07-30 16:21:33 GMT 27.751007 -83.758263 34,250 231 472 896
2021-07-30 16:21:27 GMT 27.758308 -83.748459 34,450 231 471 960
2021-07-30 16:21:24 GMT 27.763504 -83.741470 34,400 231 472 896
2021-07-30 16:21:20 GMT 27.768829 -83.734306 34,350 230 471 896
2021-07-30 16:21:16 GMT 27.774994 -83.725975 34,300 231 472 832
2021-07-30 16:21:13 GMT 27.779343 -83.720177 34,250 230 471 896
2021-07-30 16:21:10 GMT 27.782822 -83.715462 34,225 230 471 960
2021-07-30 16:21:05 GMT 27.790010 -83.705841 34,075 230 471 1088
2021-07-30 16:21:01 GMT 27.796463 -83.697212 33,600 230 471 1088
2021-07-30 16:20:55 GMT 27.805279 -83.685341 33,900 230 471 1216
2021-07-30 16:20:50 GMT 27.809464 -83.679703 33,850 230 471 1280
2021-07-30 16:20:46 GMT 27.817198 -83.669342 33,725 230 471 1216
2021-07-30 16:20:42 GMT 27.821852 -83.663162 33,625 230 471 1152
2021-07-30 16:20:39 GMT 27.826904 -83.656380 33,600 230 471 1024
2021-07-30 16:20:35 GMT 27.832699 -83.648689 33,525 230 471 1088
2021-07-30 16:20:31 GMT 27.836197 -83.643997 33,475 230 471 1216
2021-07-30 16:20:28 GMT 27.841553 -83.636841 33,375 230 471 1472
2021-07-30 16:20:25 GMT 27.850891 -83.624458 33,300 230 472 1472
2021-07-30 16:20:22 GMT 27.850891 -83.624458 33,225 230 472 1344
2021-07-30 16:20:19 GMT 27.861561 -83.610344 33,150 230 473 1280
2021-07-30 16:20:15 GMT 27.861561 -83.610344 33,075 230 473 1216
2021-07-30 16:20:11 GMT 27.865814 -83.604713 33,025 230 473 512
2021-07-30 16:20:08 GMT 27.870964 -83.597984 33,000 230 472 192
2021-07-30 16:20:04 GMT 27.876783 -83.590271 33,000 230 472 -64
2021-07-30 16:20:01 GMT 27.885452 -83.578857 33,000 230 472 0
2021-07-30 16:19:57 GMT 27.885452 -83.578857 33,000 230 472 0
2021-07-30 16:19:54 GMT 27.889725 -83.573265 33,000 230 473 0
2021-07-30 16:19:52 GMT 27.893867 -83.567825 33,000 230 473 0
2021-07-30 16:19:47 GMT 27.900850 -83.558578 33,000 230 473 0
2021-07-30 16:19:43 GMT 27.905685 -83.552216 33,000 230 473 0
2021-07-30 16:19:40 GMT 27.910534 -83.545799 33,000 230 473 0
2021-07-30 16:19:37 GMT 27.913925 -83.541283 33,000 230 474 64
2021-07-30 16:19:33 GMT 27.920013 -83.533150 33,000 231 474 64
2021-07-30 16:19:29 GMT 27.925756 -83.525352 33,000 230 474 0
2021-07-30 16:19:25 GMT 27.930450 -83.519104 33,000 229 473 -64
2021-07-30 16:19:21 GMT 27.937393 -83.510513 33,000 223 473 0
2021-07-30 16:19:18 GMT 27.942656 -83.504875 33,000 220 473 0
2021-07-30 16:19:15 GMT 27.946564 -83.500900 33,000 219 473 0
2021-07-30 16:19:11 GMT 27.951920 -83.496147 33,000 213 472 0
2021-07-30 16:19:10 GMT 27.953875 -83.494530 33,000 213 472 0
2021-07-30 16:19:09 GMT 27.955444 -83.493240 33,000 213 472 0
2021-07-30 16:19:06 GMT 27.963409 -83.487488 33,000 209 472 0
2021-07-30 16:19:03 GMT 27.967560 -83.484787 33,000 207 473 0
2021-07-30 16:19:00 GMT 27.975037 -83.480515 33,000 203 473 0
2021-07-30 16:18:58 GMT 27.980850 -83.477661 33,000 200 473 -64
2021-07-30 16:18:56 GMT 27.982691 -83.476814 33,000 200 473 -64
2021-07-30 16:18:55 GMT 27.987019 -83.475037 33,000 194 474 64
2021-07-30 16:18:51 GMT 27.992844 -83.472855 33,000 194 474 64
2021-07-30 16:18:48 GMT 28.000259 -83.470688 33,000 192 473 0
2021-07-30 16:18:45 GMT 28.003464 -83.469841 33,000 188 473 0
2021-07-30 16:18:43 GMT 28.009317 -83.468681 33,000 188 473 0
2021-07-30 16:18:40 GMT 28.016300 -83.467606 33,000 184 473 -64
2021-07-30 16:18:38 GMT 28.020210 -83.467285 33,000 182 473 -64
2021-07-30 16:18:37 GMT 28.030746 -83.466888 33,000 179 473 -64
2021-07-30 16:18:34 GMT 28.030746 -83.466888 33,000 176 472 0
2021-07-30 16:18:31 GMT 28.035526 -83.467064 33,000 176 473 0
2021-07-30 16:18:29 GMT 28.040359 -83.467308 33,000 174 472 0
2021-07-30 16:18:28 GMT 28.048189 -83.468361 33,000 172 472 0
2021-07-30 16:18:26 GMT 28.048189 -83.468361 33,000 169 472 0
2021-07-30 16:18:23 GMT 28.053818 -83.469421 33,000 167 472 0
2021-07-30 16:18:21 GMT 28.057873 -83.470352 33,000 164 471 0
2021-07-30 16:18:18 GMT 28.066111 -83.472717 33,000 161 471 0
2021-07-30 16:18:15 GMT 28.068649 -83.473595 33,000 160 471 0
2021-07-30 16:18:14 GMT 28.070709 -83.474388 33,000 159 471 -64
2021-07-30 16:18:12 GMT 28.076660 -83.476814 33,000 156 470 0
2021-07-30 16:18:08 GMT 28.085220 -83.481094 33,000 152 470 64
2021-07-30 16:18:06 GMT 28.088516 -83.482941 33,000 150 470 0
2021-07-30 16:18:05 GMT 28.091389 -83.484734 33,000 150 469 0
2021-07-30 16:18:02 GMT 28.097031 -83.488380 33,000 149 469 0
2021-07-30 16:18:01 GMT 28.097031 -83.488380 33,000 149 469 -64
2021-07-30 16:18:00 GMT 28.099070 -83.489792 33,000 148 469 -64
2021-07-30 16:17:57 GMT 28.106552 -83.494881 33,000 148 469 0
2021-07-30 16:17:54 GMT 28.111361 -83.498138 33,000 148 469 0
2021-07-30 16:17:52 GMT 28.121834 -83.505249 33,000 148 469 0
2021-07-30 16:17:48 GMT 28.123882 -83.506592 33,000 149 470 0
2021-07-30 16:17:46 GMT 28.125549 -83.507767 33,000 149 470 0
2021-07-30 16:17:45 GMT 28.127607 -83.509125 33,000 149 470 0
2021-07-30 16:17:43 GMT 28.135437 -83.514473 33,000 149 470 0
2021-07-30 16:17:41 GMT 28.135437 -83.514473 33,000 149 470 0
2021-07-30 16:17:38 GMT 28.138596 -83.516586 33,000 149 469 -64
2021-07-30 16:17:37 GMT 28.141617 -83.518593 33,000 149 469 0
2021-07-30 16:17:36 GMT 28.143667 -83.520004 33,000 149 469 0
2021-07-30 16:17:35 GMT 28.145716 -83.521408 33,000 149 469 0
2021-07-30 16:17:33 GMT 28.148882 -83.523560 33,000 149 469 0
2021-07-30 16:17:32 GMT 28.151487 -83.525284 33,000 149 469 0
2021-07-30 16:17:30 GMT 28.155399 -83.527924 33,000 149 469 0
2021-07-30 16:17:29 GMT 28.157089 -83.529053 33,000 149 469 64
2021-07-30 16:17:26 GMT 28.161591 -83.532066 33,000 149 469 64
2021-07-30 16:17:25 GMT 28.163452 -83.533363 33,000 149 469 64
2021-07-30 16:17:24 GMT 28.166245 -83.535233 33,000 149 469 64
2021-07-30 16:17:23 GMT 28.168121 -83.536499 33,000 149 469 64
2021-07-30 16:17:21 GMT 28.172577 -83.539497 33,000 149 469 0
2021-07-30 16:17:20 GMT 28.174625 -83.540901 33,000 149 469 0
2021-07-30 16:17:17 GMT 28.181143 -83.545319 33,000 149 469 -64
2021-07-30 16:17:14 GMT 28.185286 -83.548065 33,000 149 469 0
2021-07-30 16:17:13 GMT 28.186935 -83.549232 33,000 149 469 0
2021-07-30 16:17:12 GMT 28.189939 -83.551239 33,000 149 469 0
2021-07-30 16:17:10 GMT 28.193851 -83.553879 33,000 149 469 64
2021-07-30 16:17:08 GMT 28.196640 -83.555725 33,000 149 469 64
2021-07-30 16:17:06 GMT 28.200369 -83.558296 33,000 149 469 64
2021-07-30 16:17:05 GMT 28.201113 -83.558777 33,000 149 469 64
2021-07-30 16:17:01 GMT 28.209539 -83.564438 33,000 149 469 0
2021-07-30 16:17:00 GMT 28.210655 -83.565186 33,000 149 469 0
2021-07-30 16:16:58 GMT 28.214567 -83.567825 33,000 149 468 64
2021-07-30 16:16:57 GMT 28.216232 -83.568985 33,000 148 469 64
2021-07-30 16:16:56 GMT 28.220711 -83.572029 33,000 148 469 64
2021-07-30 16:16:54 GMT 28.222572 -83.573265 33,000 148 469 0
2021-07-30 16:16:53 GMT 28.224243 -83.574425 33,000 148 469 0
2021-07-30 16:16:51 GMT 28.227974 -83.576981 33,000 148 469 0
2021-07-30 16:16:48 GMT 28.233746 -83.580917 33,000 148 469 0
2021-07-30 16:16:47 GMT 28.236540 -83.582802 33,000 148 469 0
2021-07-30 16:16:46 GMT 28.240082 -83.585197 33,000 148 469 0
2021-07-30 16:16:42 GMT 28.246037 -83.589264 33,000 148 469 0
2021-07-30 16:16:41 GMT 28.247524 -83.590286 33,000 148 469 0
2021-07-30 16:16:39 GMT 28.251251 -83.592857 33,000 148 469 0
2021-07-30 16:16:38 GMT 28.253128 -83.594124 33,000 148 470 0
2021-07-30 16:16:36 GMT 28.263353 -83.601112 33,000 148 469 0
2021-07-30 16:16:33 GMT 28.263353 -83.601112 33,000 148 469 0
2021-07-30 16:16:30 GMT 28.267076 -83.603699 33,000 148 469 0
2021-07-30 16:16:29 GMT 28.269127 -83.605095 33,000 148 469 0
2021-07-30 16:16:28 GMT 28.270752 -83.606224 33,000 148 469 0
2021-07-30 16:16:25 GMT 28.276520 -83.610237 33,000 148 469 64
2021-07-30 16:16:24 GMT 28.278580 -83.611610 33,000 148 469 64
2021-07-30 16:16:23 GMT 28.280411 -83.612930 33,000 148 469 64
2021-07-30 16:16:22 GMT 28.283020 -83.614723 33,000 148 469 0
2021-07-30 16:16:19 GMT 28.286865 -83.617470 33,000 148 468 -64
2021-07-30 16:16:17 GMT 28.289658 -83.619423 33,000 148 468 -64
2021-07-30 16:16:16 GMT 28.291489 -83.620697 33,000 149 469 -64
2021-07-30 16:16:15 GMT 28.294144 -83.622490 33,000 150 469 -64
2021-07-30 16:16:14 GMT 28.295986 -83.623726 33,000 151 469 -64
2021-07-30 16:16:13 GMT 28.299591 -83.626030 33,000 152 469 0
2021-07-30 16:16:11 GMT 28.301697 -83.627296 33,000 153 469 -64
2021-07-30 16:16:10 GMT 28.304600 -83.629059 33,000 153 469 -64
2021-07-30 16:16:05 GMT 28.314651 -83.634377 33,000 159 469 -64
2021-07-30 16:16:02 GMT 28.320282 -83.636963 33,000 159 469 -64
2021-07-30 16:16:00 GMT 28.324383 -83.638702 33,000 162 469 -64
2021-07-30 16:15:59 GMT 28.329552 -83.640694 33,000 163 469 -64
2021-07-30 16:15:57 GMT 28.331406 -83.641350 33,000 164 470 0
2021-07-30 16:15:56 GMT 28.333508 -83.642090 33,000 164 471 0
2021-07-30 16:15:54 GMT 28.337906 -83.643456 33,000 165 470 0
2021-07-30 16:15:52 GMT 28.342167 -83.644623 33,000 168 471 0
2021-07-30 16:15:49 GMT 28.347473 -83.645920 33,000 169 470 0
2021-07-30 16:15:48 GMT 28.348526 -83.646149 33,000 170 470 0
2021-07-30 16:15:47 GMT 28.350677 -83.646629 33,000 171 470 0
2021-07-30 16:15:45 GMT 28.354797 -83.647369 33,000 173 470 0
2021-07-30 16:15:44 GMT 28.357819 -83.647789 33,000 174 470 0
2021-07-30 16:15:42 GMT 28.361717 -83.648285 33,000 176 470 64
2021-07-30 16:15:41 GMT 28.363859 -83.648499 33,000 177 469 64
2021-07-30 16:15:39 GMT 28.368467 -83.648827 33,000 179 470 64
2021-07-30 16:15:37 GMT 28.372799 -83.648987 33,000 181 470 64
2021-07-30 16:15:36 GMT 28.375217 -83.649040 33,000 181 470 64
2021-07-30 16:15:35 GMT 28.377594 -83.649002 33,000 183 470 64
2021-07-30 16:15:34 GMT 28.380013 -83.648987 33,000 183 470 64
2021-07-30 16:15:32 GMT 28.384575 -83.648827 33,000 184 469 0
2021-07-30 16:15:31 GMT 28.386763 -83.648666 33,000 186 469 0
2021-07-30 16:15:29 GMT 28.391098 -83.648315 33,000 187 469 -64
2021-07-30 16:15:28 GMT 28.393250 -83.648109 33,000 187 469 -64
2021-07-30 16:15:27 GMT 28.398449 -83.647476 33,000 189 469 0
2021-07-30 16:15:25 GMT 28.400391 -83.647209 33,000 189 469 0
2021-07-30 16:15:24 GMT 28.402771 -83.646835 33,000 190 469 0
2021-07-30 16:15:22 GMT 28.409409 -83.645622 33,000 191 469 0
2021-07-30 16:15:20 GMT 28.409409 -83.645622 33,000 192 469 0
2021-07-30 16:15:19 GMT 28.414322 -83.644516 33,000 193 469 64
2021-07-30 16:15:15 GMT 28.420715 -83.642929 33,000 195 468 0
2021-07-30 16:15:13 GMT 28.425356 -83.641663 33,000 195 468 0
2021-07-30 16:15:12 GMT 28.427450 -83.641014 33,000 196 468 0
2021-07-30 16:15:11 GMT 28.434174 -83.638969 33,000 196 468 0
2021-07-30 16:15:09 GMT 28.434174 -83.638969 33,000 196 468 0
2021-07-30 16:15:07 GMT 28.438763 -83.637573 33,000 196 468 -64
2021-07-30 16:15:05 GMT 28.442734 -83.636383 33,000 196 468 -64
2021-07-30 16:15:03 GMT 28.447329 -83.634987 33,000 196 468 -64
2021-07-30 16:15:01 GMT 28.450912 -83.633911 33,000 196 468 -64
2021-07-30 16:15:00 GMT 28.452169 -83.633530 33,000 195 467 -64
2021-07-30 16:14:58 GMT 28.456360 -83.632240 33,000 195 467 64
2021-07-30 16:14:56 GMT 28.460316 -83.631050 33,000 195 467 64
2021-07-30 16:14:54 GMT 28.464294 -83.629829 33,000 196 466 0
2021-07-30 16:14:53 GMT 28.466833 -83.629059 33,000 196 466 0
2021-07-30 16:14:50 GMT 28.474777 -83.626663 33,000 196 466 0
2021-07-30 16:14:43 GMT 28.487320 -83.622803 33,000 196 466 0
2021-07-30 16:14:42 GMT 28.494810 -83.620552 33,000 196 466 0
2021-07-30 16:14:40 GMT 28.494810 -83.620552 33,000 196 466 0
2021-07-30 16:14:37 GMT 28.501701 -83.618401 33,000 196 466 0
2021-07-30 16:14:35 GMT 28.505859 -83.617157 33,000 196 466 0
2021-07-30 16:14:34 GMT 28.507553 -83.616623 33,000 196 466 0
2021-07-30 16:14:32 GMT 28.512129 -83.615219 33,000 196 466 64
2021-07-30 16:14:29 GMT 28.521067 -83.612473 33,000 196 465 0
2021-07-30 16:14:27 GMT 28.521067 -83.612473 33,000 196 465 -64
2021-07-30 16:14:24 GMT 28.526505 -83.610817 33,000 196 465 -64
2021-07-30 16:14:23 GMT 28.529633 -83.609833 33,000 196 465 -64
2021-07-30 16:14:22 GMT 28.531914 -83.609131 33,000 196 465 0
2021-07-30 16:14:19 GMT 28.536896 -83.607597 33,000 196 465 0
2021-07-30 16:14:18 GMT 28.539001 -83.606964 33,000 196 465 64
2021-07-30 16:14:17 GMT 28.542297 -83.605957 33,000 196 465 64
2021-07-30 16:14:15 GMT 28.545456 -83.604950 33,000 196 465 64
2021-07-30 16:14:14 GMT 28.547741 -83.604286 33,000 196 465 64
2021-07-30 16:14:11 GMT 28.554382 -83.602203 33,000 196 465 64
2021-07-30 16:14:09 GMT 28.558727 -83.600899 33,000 196 465 0
2021-07-30 16:14:04 GMT 28.569155 -83.597664 33,000 196 465 0
2021-07-30 16:14:01 GMT 28.577042 -83.595238 33,000 196 465 0
2021-07-30 16:13:57 GMT 28.584778 -83.592804 33,000 196 465 0
2021-07-30 16:13:54 GMT 28.590988 -83.590881 33,000 196 466 0
2021-07-30 16:13:51 GMT 28.597229 -83.588898 33,000 196 466 -64
2021-07-30 16:13:47 GMT 28.603683 -83.586891 33,000 196 466 -64
2021-07-30 16:13:44 GMT 28.611378 -83.584412 33,000 196 466 0
2021-07-30 16:13:41 GMT 28.618454 -83.582207 33,000 196 466 0
2021-07-30 16:13:38 GMT 28.624695 -83.580231 33,000 196 466 64
2021-07-30 16:13:33 GMT 28.633024 -83.577576 33,000 196 466 0
2021-07-30 16:13:28 GMT 28.645500 -83.573700 33,000 195 466 0
2021-07-30 16:13:25 GMT 28.657425 -83.570145 33,000 195 466 0
2021-07-30 16:13:22 GMT 28.657425 -83.570145 33,000 194 466 0
2021-07-30 16:13:18 GMT 28.672035 -83.566643 33,000 190 467 0
2021-07-30 16:13:15 GMT 28.677155 -83.565712 33,000 190 466 0
2021-07-30 16:13:12 GMT 28.677155 -83.565712 33,000 189 467 0
2021-07-30 16:13:09 GMT 28.686140 -83.564110 33,000 190 466 0
2021-07-30 16:13:06 GMT 28.691494 -83.563141 33,000 191 467 0
2021-07-30 16:13:03 GMT 28.699127 -83.561592 33,000 192 466 64
2021-07-30 16:12:59 GMT 28.705925 -83.560020 33,000 195 467 0
2021-07-30 16:12:55 GMT 28.713282 -83.557922 33,000 196 466 0
2021-07-30 16:12:52 GMT 28.720779 -83.555565 33,000 197 467 -64
2021-07-30 16:12:49 GMT 28.735161 -83.550919 33,000 197 467 -64
2021-07-30 16:12:46 GMT 28.735161 -83.550919 33,000 197 467 -64
2021-07-30 16:12:42 GMT 28.743484 -83.548172 33,000 197 466 -64
2021-07-30 16:12:36 GMT 28.755505 -83.544189 33,000 197 466 -64
2021-07-30 16:12:31 GMT 28.765686 -83.540833 33,000 197 466 0
2021-07-30 16:12:28 GMT 28.770905 -83.539085 33,000 196 466 0
2021-07-30 16:12:25 GMT 28.777771 -83.536926 33,000 195 466 0
2021-07-30 16:12:22 GMT 28.783173 -83.535233 33,000 194 466 64
2021-07-30 16:12:19 GMT 28.790131 -83.533333 33,000 197 460 -64
2021-07-30 16:12:15 GMT 28.798782 -83.531219 33,000 192 466 0
2021-07-30 16:12:12 GMT 28.805128 -83.529755 33,000 192 466 64
2021-07-30 16:12:09 GMT 28.809357 -83.528732 33,000 192 466 64
2021-07-30 16:12:04 GMT 28.821213 -83.525986 33,000 192 465 -64
2021-07-30 16:12:00 GMT 28.830734 -83.523720 33,000 192 464 -64
2021-07-30 16:11:56 GMT 28.838562 -83.521866 33,000 193 463 64
2021-07-30 16:11:53 GMT 28.844238 -83.520546 33,000 193 464 0
2021-07-30 16:11:49 GMT 28.852432 -83.518539 33,000 193 463 64
2021-07-30 16:11:46 GMT 28.860626 -83.516533 33,000 193 463 0
2021-07-30 16:11:43 GMT 28.864807 -83.515480 33,000 193 462 0
2021-07-30 16:11:39 GMT 28.874451 -83.513153 33,000 193 461 0
2021-07-30 16:11:35 GMT 28.881987 -83.511284 33,000 193 461 64
2021-07-30 16:11:31 GMT 28.892670 -83.508667 33,000 193 460 64
2021-07-30 16:11:28 GMT 28.896603 -83.507675 33,000 193 460 64
2021-07-30 16:11:25 GMT 28.904526 -83.505653 33,000 193 460 0
2021-07-30 16:11:20 GMT 28.919128 -83.502007 33,000 193 460 0
2021-07-30 16:11:17 GMT 28.919128 -83.502007 33,000 193 460 0
2021-07-30 16:11:13 GMT 28.935102 -83.497925 33,000 193 459 0
2021-07-30 16:11:10 GMT 28.935102 -83.497925 33,000 193 459 0
2021-07-30 16:11:07 GMT 28.940506 -83.496567 33,000 199 461 0
2021-07-30 16:11:02 GMT 28.951906 -83.493614 33,000 193 458 64
2021-07-30 16:10:59 GMT 28.958332 -83.491943 33,000 194 459 64
2021-07-30 16:10:51 GMT 28.974243 -83.487381 33,000 197 460 -64
2021-07-30 16:10:47 GMT 28.983843 -83.484032 33,000 198 461 0
2021-07-30 16:10:42 GMT 28.993805 -83.480370 33,000 203 462 0
2021-07-30 16:10:38 GMT 28.999878 -83.478027 33,000 202 462 -64
2021-07-30 16:10:35 GMT 29.006516 -83.475281 33,000 202 462 -64
2021-07-30 16:10:32 GMT 29.011122 -83.473259 33,000 203 462 0
2021-07-30 16:10:29 GMT 29.016848 -83.470566 33,000 203 462 -64
2021-07-30 16:10:26 GMT 29.024994 -83.466797 33,000 203 462 -64
2021-07-30 16:10:23 GMT 29.028952 -83.464912 33,000 203 462 0
2021-07-30 16:10:20 GMT 29.036865 -83.461235 33,000 203 462 0
2021-07-30 16:10:16 GMT 29.043411 -83.458168 33,000 203 462 64
2021-07-30 16:10:13 GMT 29.049545 -83.455261 33,000 203 462 0
2021-07-30 16:10:10 GMT 29.057487 -83.451553 33,000 203 462 0
2021-07-30 16:10:07 GMT 29.063461 -83.448769 33,000 203 463 0
2021-07-30 16:10:04 GMT 29.066240 -83.447464 33,000 203 463 0
2021-07-30 16:10:00 GMT 29.075363 -83.443169 33,000 203 464 0
2021-07-30 16:09:57 GMT 29.082687 -83.439735 33,000 203 464 0
2021-07-30 16:09:54 GMT 29.086491 -83.437988 33,000 203 464 0
2021-07-30 16:09:49 GMT 29.097988 -83.432549 33,000 203 464 0
2021-07-30 16:09:44 GMT 29.107544 -83.428062 33,000 203 464 0
2021-07-30 16:09:38 GMT 29.119492 -83.422409 33,000 203 465 0
2021-07-30 16:09:34 GMT 29.128246 -83.418274 33,000 203 465 0
2021-07-30 16:09:29 GMT 29.136612 -83.414383 33,000 203 465 0
2021-07-30 16:09:26 GMT 29.141602 -83.412003 33,000 203 465 0
2021-07-30 16:09:23 GMT 29.148777 -83.408630 33,000 203 465 0
2021-07-30 16:09:17 GMT 29.160919 -83.402924 33,000 203 466 0
2021-07-30 16:09:13 GMT 29.170715 -83.398323 33,000 203 466 0
2021-07-30 16:09:08 GMT 29.178085 -83.394836 33,000 203 466 0
2021-07-30 16:09:05 GMT 29.186066 -83.391075 33,000 203 466 0
2021-07-30 16:09:02 GMT 29.190033 -83.389191 33,000 203 466 0
2021-07-30 16:08:59 GMT 29.198448 -83.385262 33,000 203 466 0
2021-07-30 16:08:55 GMT 29.203629 -83.382797 33,000 203 466 0
2021-07-30 16:08:51 GMT 29.211411 -83.379150 33,000 203 466 -64
2021-07-30 16:08:45 GMT 29.226196 -83.372185 33,000 203 467 64
2021-07-30 16:08:41 GMT 29.232788 -83.369064 33,000 203 466 64
2021-07-30 16:08:38 GMT 29.240616 -83.365417 33,000 203 467 64
2021-07-30 16:08:34 GMT 29.248810 -83.361565 33,000 203 467 0
2021-07-30 16:08:30 GMT 29.254404 -83.358925 33,000 203 467 0
2021-07-30 16:08:27 GMT 29.260803 -83.355911 33,000 203 467 0
2021-07-30 16:08:24 GMT 29.266800 -83.353058 33,000 203 467 0
2021-07-30 16:08:21 GMT 29.274422 -83.349503 33,000 203 468 0
2021-07-30 16:08:16 GMT 29.281450 -83.346161 33,000 203 468 0
2021-07-30 16:08:12 GMT 29.291273 -83.341583 33,000 203 468 -64
2021-07-30 16:08:09 GMT 29.295273 -83.339699 33,000 203 468 -64
2021-07-30 16:08:06 GMT 29.303101 -83.335999 33,000 203 469 -64
2021-07-30 16:08:03 GMT 29.309738 -83.332886 33,000 203 469 -64
2021-07-30 16:08:00 GMT 29.316132 -83.329842 33,000 203 469 0
2021-07-30 16:07:56 GMT 29.323380 -83.326492 33,000 203 469 0
2021-07-30 16:07:53 GMT 29.330429 -83.323166 33,000 203 469 64
2021-07-30 16:07:49 GMT 29.336426 -83.320312 33,000 203 469 64
2021-07-30 16:07:46 GMT 29.344669 -83.316437 33,000 203 469 0
2021-07-30 16:07:41 GMT 29.354118 -83.311966 33,000 203 469 0
2021-07-30 16:07:37 GMT 29.363195 -83.307655 33,000 203 470 0
2021-07-30 16:07:31 GMT 29.374649 -83.302193 33,000 203 470 0
2021-07-30 16:07:28 GMT 29.378511 -83.300385 33,000 203 470 0
2021-07-30 16:07:25 GMT 29.386551 -83.296600 33,000 203 470 0
2021-07-30 16:07:20 GMT 29.397646 -83.291336 33,000 203 471 0
2021-07-30 16:07:16 GMT 29.404488 -83.288109 33,000 203 471 0
2021-07-30 16:07:11 GMT 29.415428 -83.282936 33,000 203 472 -64
2021-07-30 16:07:07 GMT 29.421665 -83.279976 33,000 203 471 -64
2021-07-30 16:07:01 GMT 29.434141 -83.274048 33,000 204 471 0
2021-07-30 16:06:57 GMT 29.441359 -83.270447 33,000 205 472 0
2021-07-30 16:06:54 GMT 29.446339 -83.267860 33,000 206 472 0
2021-07-30 16:06:49 GMT 29.457930 -83.261345 33,000 208 472 0
2021-07-30 16:06:42 GMT 29.470184 -83.254082 33,000 208 473 0
2021-07-30 16:06:38 GMT 29.478516 -83.249115 33,000 208 472 0
2021-07-30 16:06:34 GMT 29.488607 -83.243141 33,000 208 472 0
2021-07-30 16:06:29 GMT 29.498711 -83.237106 33,000 208 472 0
2021-07-30 16:06:25 GMT 29.503189 -83.234428 33,000 208 472 0
2021-07-30 16:06:22 GMT 29.508999 -83.230965 33,000 208 472 0
2021-07-30 16:06:17 GMT 29.519472 -83.224724 33,000 208 471 0
2021-07-30 16:06:12 GMT 29.530132 -83.218369 33,000 208 472 0
2021-07-30 16:06:08 GMT 29.543678 -83.210289 33,000 208 471 0
2021-07-30 16:06:04 GMT 29.543678 -83.210289 33,000 208 471 0
2021-07-30 16:06:01 GMT 29.550104 -83.206467 33,000 208 471 0
2021-07-30 16:05:56 GMT 29.562487 -83.199089 33,000 208 471 0
2021-07-30 16:05:53 GMT 29.566164 -83.196877 33,000 208 471 0
2021-07-30 16:05:50 GMT 29.573147 -83.192734 33,000 208 471 -64
2021-07-30 16:05:44 GMT 29.584785 -83.185783 33,000 208 470 0
2021-07-30 16:05:40 GMT 29.591164 -83.182014 33,000 208 470 0
2021-07-30 16:05:35 GMT 29.601242 -83.176010 33,000 208 471 64
2021-07-30 16:05:30 GMT 29.609161 -83.171257 33,000 208 471 0
2021-07-30 16:05:25 GMT 29.620211 -83.164673 33,000 209 470 0
2021-07-30 16:05:22 GMT 29.625380 -83.161491 33,000 210 471 -64
2021-07-30 16:05:19 GMT 29.630539 -83.158211 33,000 210 471 -64
2021-07-30 16:05:12 GMT 29.643585 -83.149071 33,000 217 472 64
2021-07-30 16:05:09 GMT 29.649216 -83.144745 33,000 216 472 64
2021-07-30 16:05:04 GMT 29.658756 -83.136833 33,000 218 472 64
2021-07-30 16:05:01 GMT 29.663315 -83.132912 33,000 218 472 64
2021-07-30 16:04:58 GMT 29.668396 -83.128525 33,000 218 472 0
2021-07-30 16:04:54 GMT 29.677795 -83.120354 33,000 218 472 0
2021-07-30 16:04:50 GMT 29.683569 -83.115341 33,000 218 472 -64
2021-07-30 16:04:47 GMT 29.688766 -83.110779 33,000 218 472 0
2021-07-30 16:04:38 GMT 29.704983 -83.096657 33,000 218 472 0
2021-07-30 16:04:27 GMT 29.722906 -83.080986 33,000 218 472 0
2021-07-30 16:04:20 GMT 29.735102 -83.070374 33,000 218 472 0
2021-07-30 16:04:17 GMT 29.740997 -83.065247 33,000 218 472 0
2021-07-30 16:04:07 GMT 29.759123 -83.049423 33,000 218 472 0
2021-07-30 16:03:58 GMT 29.772671 -83.037575 33,000 218 472 0
2021-07-30 16:03:55 GMT 29.778070 -83.032837 33,000 218 472 0
2021-07-30 16:03:50 GMT 29.799019 -83.014313 33,000 218 472 0
2021-07-30 16:03:44 GMT 29.799019 -83.014313 33,000 218 472 0
2021-07-30 16:03:40 GMT 29.805267 -83.008789 33,000 218 472 0
2021-07-30 16:03:33 GMT 29.817221 -82.998207 33,000 218 472 0
2021-07-30 16:03:23 GMT 29.834564 -82.982956 33,000 218 472 0
2021-07-30 16:03:15 GMT 29.849667 -82.969719 33,000 218 471 0
2021-07-30 16:03:00 GMT 29.873503 -82.948875 33,000 218 472 0
2021-07-30 16:02:53 GMT 29.887573 -82.936584 33,000 218 471 64
2021-07-30 16:02:39 GMT 29.910000 -82.916939 33,000 218 472 0
2021-07-30 16:02:29 GMT 29.929413 -82.899872 33,000 218 471 0
2021-07-30 16:02:21 GMT 29.941376 -82.889320 33,000 218 472 0
2021-07-30 16:02:14 GMT 29.953491 -82.878593 33,000 218 471 0
2021-07-30 16:02:05 GMT 29.969400 -82.864433 33,000 218 471 0
2021-07-30 16:02:00 GMT 29.978027 -82.856789 33,000 218 472 0
2021-07-30 16:01:56 GMT 29.987366 -82.848495 33,000 218 471 0
2021-07-30 16:01:50 GMT 29.997099 -82.839935 33,000 218 471 0
2021-07-30 16:01:37 GMT 30.018791 -82.820930 33,000 218 471 0
2021-07-30 16:01:29 GMT 30.032337 -82.809067 33,000 218 471 0
2021-07-30 16:01:21 GMT 30.046509 -82.796898 33,000 216 470 0
2021-07-30 16:01:17 GMT 30.054520 -82.790382 33,000 210 468 0
2021-07-30 16:01:08 GMT 30.069534 -82.779732 33,000 208 467 0
2021-07-30 16:00:58 GMT 30.089272 -82.768303 33,000 206 467 0
2021-07-30 16:00:47 GMT 30.112015 -82.756027 33,000 206 467 0
2021-07-30 16:00:36 GMT 30.131588 -82.745453 33,000 206 467 0
2021-07-30 16:00:27 GMT 30.151932 -82.734482 33,000 206 467 0
2021-07-30 16:00:15 GMT 30.172714 -82.723282 33,000 206 467 0
2021-07-30 16:00:10 GMT 30.185450 -82.716446 33,000 206 467 64
2021-07-30 16:00:06 GMT 30.192663 -82.712547 33,000 206 467 0
2021-07-30 15:59:58 GMT 30.205606 -82.705574 33,000 206 466 0
2021-07-30 15:59:54 GMT 30.213614 -82.701233 33,000 206 466 0
2021-07-30 15:59:49 GMT 30.226730 -82.694199 33,000 206 466 0
2021-07-30 15:59:45 GMT 30.233770 -82.690414 33,000 206 466 0
2021-07-30 15:59:36 GMT 30.249830 -82.681732 33,000 206 466 0
2021-07-30 15:59:33 GMT 30.255295 -82.678795 33,000 206 466 0
2021-07-30 15:59:28 GMT 30.267197 -82.672333 33,000 206 466 0
2021-07-30 15:59:24 GMT 30.275434 -82.667892 33,000 206 466 0
2021-07-30 15:59:15 GMT 30.290497 -82.659782 33,000 206 466 0
2021-07-30 15:59:12 GMT 30.295944 -82.656822 33,000 206 466 0
2021-07-30 15:59:03 GMT 30.316679 -82.645584 33,000 206 466 0
2021-07-30 15:58:51 GMT 30.337006 -82.634583 33,000 206 466 -64
2021-07-30 15:58:42 GMT 30.357330 -82.623543 33,000 206 466 0
2021-07-30 15:58:30 GMT 30.377838 -82.612450 33,000 206 466 0
2021-07-30 15:58:19 GMT 30.402283 -82.599144 33,000 206 466 0
2021-07-30 15:58:10 GMT 30.419266 -82.589935 33,000 206 466 0
2021-07-30 15:57:58 GMT 30.440598 -82.578308 33,000 206 466 0
2021-07-30 15:57:49 GMT 30.460556 -82.567482 33,000 206 467 0
2021-07-30 15:57:37 GMT 30.481888 -82.555901 33,000 206 467 0
2021-07-30 15:57:28 GMT 30.501678 -82.545174 33,000 206 467 64
2021-07-30 15:57:16 GMT 30.523045 -82.533638 33,000 206 467 0
2021-07-30 15:57:05 GMT 30.544281 -82.522186 33,000 205 468 0
2021-07-30 15:56:56 GMT 30.564989 -82.511116 33,000 205 468 0
2021-07-30 15:56:44 GMT 30.589600 -82.497902 33,000 206 470 0
2021-07-30 15:56:35 GMT 30.603022 -82.490677 33,000 206 470 0
2021-07-30 15:56:33 GMT 30.608551 -82.487724 33,000 206 470 0
2021-07-30 15:56:24 GMT 30.627275 -82.477554 33,000 206 470 0
2021-07-30 15:56:21 GMT 30.634003 -82.473930 33,000 206 470 -64
2021-07-30 15:56:15 GMT 30.643250 -82.468872 33,000 206 471 0
2021-07-30 15:56:11 GMT 30.651157 -82.464584 33,000 206 471 0
2021-07-30 15:56:04 GMT 30.666567 -82.456131 33,000 206 471 -64
2021-07-30 15:56:02 GMT 30.671314 -82.453545 33,000 206 471 0
2021-07-30 15:55:58 GMT 30.676668 -82.450638 33,000 205 471 64
2021-07-30 15:55:51 GMT 30.692001 -82.442589 33,000 203 470 0
2021-07-30 15:55:47 GMT 30.701889 -82.437851 33,000 201 470 0
2021-07-30 15:55:41 GMT 30.713104 -82.432953 33,000 200 469 0
2021-07-30 15:55:34 GMT 30.725510 -82.428101 33,000 198 469 0
2021-07-30 15:55:28 GMT 30.738602 -82.423416 33,000 198 470 0
2021-07-30 15:55:25 GMT 30.745926 -82.420837 33,000 198 470 0
2021-07-30 15:55:20 GMT 30.757141 -82.416847 33,000 198 470 64
2021-07-30 15:55:17 GMT 30.761114 -82.415482 33,000 198 470 0
2021-07-30 15:55:12 GMT 30.771122 -82.411911 33,000 198 470 0
2021-07-30 15:55:08 GMT 30.780525 -82.408615 33,000 198 470 0
2021-07-30 15:55:04 GMT 30.789091 -82.405594 33,000 198 470 0
2021-07-30 15:54:59 GMT 30.800962 -82.401360 33,000 198 470 -64
2021-07-30 15:54:54 GMT 30.811995 -82.397461 33,000 198 470 0
2021-07-30 15:54:47 GMT 30.824518 -82.393013 33,000 198 470 0
2021-07-30 15:54:43 GMT 30.833313 -82.389923 33,000 198 470 -64
2021-07-30 15:54:37 GMT 30.846863 -82.385101 33,000 198 470 0
2021-07-30 15:54:27 GMT 30.866461 -82.378128 33,000 198 470 0
2021-07-30 15:54:16 GMT 30.889801 -82.369835 33,000 198 470 0
2021-07-30 15:54:05 GMT 30.911896 -82.361923 33,000 198 470 0
2021-07-30 15:53:55 GMT 30.933746 -82.354111 33,000 198 470 0
2021-07-30 15:53:45 GMT 30.954391 -82.346733 33,000 198 470 0
2021-07-30 15:53:35 GMT 30.975439 -82.339233 33,000 198 470 0
2021-07-30 15:53:29 GMT 30.987717 -82.334831 33,000 198 470 0
2021-07-30 15:53:24 GMT 30.997320 -82.331375 33,000 198 470 0
2021-07-30 15:53:14 GMT 31.019394 -82.323517 33,000 198 470 0
2021-07-30 15:53:08 GMT 31.031443 -82.319183 33,000 198 470 -64
2021-07-30 15:53:02 GMT 31.042707 -82.315170 33,000 198 470 -64
2021-07-30 15:52:53 GMT 31.063522 -82.307686 33,000 198 469 0
2021-07-30 15:52:47 GMT 31.076832 -82.302925 33,000 198 469 0
2021-07-30 15:52:42 GMT 31.084763 -82.300095 33,000 198 469 0
2021-07-30 15:52:31 GMT 31.107193 -82.292122 33,000 198 469 0
2021-07-30 15:52:22 GMT 31.128830 -82.284355 33,000 198 469 0
2021-07-30 15:52:16 GMT 31.140886 -82.280075 33,000 198 469 0
2021-07-30 15:52:11 GMT 31.149824 -82.276833 33,000 198 470 0
2021-07-30 15:52:04 GMT 31.162308 -82.272354 33,000 198 469 0
2021-07-30 15:52:00 GMT 31.173101 -82.268478 33,000 198 470 64
2021-07-30 15:51:50 GMT 31.193024 -82.261314 33,000 198 470 64
2021-07-30 15:51:40 GMT 31.215277 -82.253319 32,975 198 468 64
2021-07-30 15:51:28 GMT 31.237701 -82.245270 32,975 198 468 128
2021-07-30 15:51:18 GMT 31.261368 -82.236816 33,000 198 469 -512
2021-07-30 15:51:05 GMT 31.286316 -82.227829 33,225 198 469 -1664
2021-07-30 15:50:58 GMT 31.302143 -82.222176 33,425 198 470 -1792
2021-07-30 15:50:52 GMT 31.315659 -82.217262 33,625 198 470 -1792
2021-07-30 15:50:46 GMT 31.325233 -82.213821 33,750 198 470 -1792
2021-07-30 15:50:35 GMT 31.350723 -82.204659 34,000 198 472 -192
2021-07-30 15:50:25 GMT 31.369551 -82.197891 34,000 198 472 0
2021-07-30 15:50:10 GMT 31.401169 -82.186569 34,000 198 472 0
2021-07-30 15:50:04 GMT 31.413757 -82.182045 34,000 198 473 -64
2021-07-30 15:50:00 GMT 31.421457 -82.179276 34,000 198 472 0
2021-07-30 15:49:51 GMT 31.440496 -82.172409 34,000 198 472 0
2021-07-30 15:49:43 GMT 31.456371 -82.166641 34,000 198 472 -64
2021-07-30 15:49:32 GMT 31.480347 -82.158012 34,000 198 470 0
2021-07-30 15:49:26 GMT 31.495193 -82.152641 34,000 198 470 0
2021-07-30 15:49:20 GMT 31.503708 -82.149567 34,000 198 470 0
2021-07-30 15:49:13 GMT 31.519123 -82.144005 34,000 198 470 0
2021-07-30 15:49:10 GMT 31.525408 -82.141754 34,000 198 470 0
2021-07-30 15:49:06 GMT 31.535614 -82.138046 34,000 198 470 0
2021-07-30 15:49:03 GMT 31.542259 -82.135658 34,000 198 470 0
2021-07-30 15:49:00 GMT 31.547058 -82.133896 34,000 198 470 0
2021-07-30 15:48:56 GMT 31.555574 -82.130821 34,000 198 470 0
2021-07-30 15:48:51 GMT 31.564728 -82.127541 34,000 198 470 0
2021-07-30 15:48:47 GMT 31.577873 -82.122749 34,000 198 470 0
2021-07-30 15:48:39 GMT 31.589697 -82.118462 34,000 198 470 64
2021-07-30 15:48:32 GMT 31.606750 -82.112305 34,000 198 470 0
2021-07-30 15:48:29 GMT 31.611156 -82.110718 34,000 198 470 0
2021-07-30 15:48:24 GMT 31.623413 -82.106270 34,000 198 470 -64
2021-07-30 15:48:21 GMT 31.642136 -82.099487 34,000 198 470 0
2021-07-30 15:48:15 GMT 31.642136 -82.099487 34,000 198 470 0
2021-07-30 15:48:09 GMT 31.652527 -82.095711 34,000 198 470 0
2021-07-30 15:48:01 GMT 31.669601 -82.089577 34,000 198 470 0
2021-07-30 15:47:58 GMT 31.675873 -82.087311 34,000 198 470 0
2021-07-30 15:47:52 GMT 31.691042 -82.081772 34,000 198 470 0
2021-07-30 15:47:48 GMT 31.696884 -82.079666 34,000 198 470 0
2021-07-30 15:47:44 GMT 31.705399 -82.076599 34,000 198 470 0
2021-07-30 15:47:39 GMT 31.718719 -82.071747 34,000 198 470 0
2021-07-30 15:47:35 GMT 31.722885 -82.070244 34,000 198 470 0
2021-07-30 15:47:33 GMT 31.728470 -82.068192 34,000 198 470 0
2021-07-30 15:47:27 GMT 31.740326 -82.063942 34,000 198 470 0
2021-07-30 15:47:21 GMT 31.754471 -82.058769 34,000 198 470 0
2021-07-30 15:47:17 GMT 31.760311 -82.056664 34,000 198 470 0
2021-07-30 15:47:11 GMT 31.774658 -82.051498 34,000 198 470 0
2021-07-30 15:47:06 GMT 31.783173 -82.048424 34,000 198 470 0
2021-07-30 15:47:02 GMT 31.793177 -82.044777 34,000 198 470 0
2021-07-30 15:46:54 GMT 31.809841 -82.038780 34,000 198 470 0
2021-07-30 15:46:52 GMT 31.813753 -82.037323 34,000 198 470 0
2021-07-30 15:46:46 GMT 31.825624 -82.033005 34,000 198 470 0
2021-07-30 15:46:42 GMT 31.835819 -82.029305 34,000 198 470 0
2021-07-30 15:46:34 GMT 31.851242 -82.023651 34,000 198 470 0
2021-07-30 15:46:32 GMT 31.876179 -82.014450 34,000 198 470 0
2021-07-30 15:46:23 GMT 31.876179 -82.014450 34,000 198 470 0
2021-07-30 15:46:15 GMT 31.891123 -82.008904 34,000 198 470 0
2021-07-30 15:46:07 GMT 31.907135 -82.002945 34,000 198 470 0
2021-07-30 15:46:01 GMT 31.919403 -81.998383 34,000 198 470 0
2021-07-30 15:45:53 GMT 31.935860 -81.992310 34,000 198 471 0
2021-07-30 15:45:50 GMT 31.942284 -81.989899 34,000 198 471 0
2021-07-30 15:45:44 GMT 31.963120 -81.982124 34,000 198 471 0
2021-07-30 15:45:41 GMT 31.963120 -81.982124 34,000 198 471 0
2021-07-30 15:45:33 GMT 31.978315 -81.976448 34,000 198 472 -64
2021-07-30 15:45:30 GMT 31.984543 -81.974106 34,000 198 472 -64
2021-07-30 15:45:22 GMT 32.000984 -81.967926 34,000 198 472 0
2021-07-30 15:45:20 GMT 32.007019 -81.965698 34,000 198 472 0
2021-07-30 15:45:11 GMT 32.023087 -81.959656 34,000 198 472 0
2021-07-30 15:45:09 GMT 32.028076 -81.957787 34,000 198 472 0
2021-07-30 15:44:58 GMT 32.050781 -81.949272 34,000 198 472 0
2021-07-30 15:44:48 GMT 32.072025 -81.941307 34,000 198 472 0
2021-07-30 15:44:37 GMT 32.093445 -81.933235 34,000 198 472 -64
2021-07-30 15:44:29 GMT 32.111572 -81.926476 34,000 198 472 0
2021-07-30 15:44:27 GMT 32.116150 -81.924721 34,000 198 472 0
2021-07-30 15:44:18 GMT 32.133240 -81.918381 34,000 199 472 0
2021-07-30 15:44:08 GMT 32.159775 -81.907333 34,000 201 471 0
2021-07-30 15:43:58 GMT 32.175522 -81.900383 34,000 201 471 0
2021-07-30 15:43:47 GMT 32.196121 -81.891212 34,000 201 470 0
2021-07-30 15:43:39 GMT 32.212986 -81.883629 34,000 201 468 0
2021-07-30 15:43:34 GMT 32.222534 -81.879349 34,000 201 468 0
2021-07-30 15:43:31 GMT 32.232258 -81.874939 34,000 201 467 0
2021-07-30 15:43:27 GMT 32.238373 -81.872261 34,000 201 468 0
2021-07-30 15:43:22 GMT 32.248505 -81.867706 34,000 201 467 0
2021-07-30 15:43:17 GMT 32.258835 -81.863083 34,000 201 467 0
2021-07-30 15:43:14 GMT 32.266891 -81.859467 34,000 201 467 0
2021-07-30 15:43:03 GMT 32.284515 -81.851547 34,000 201 467 0
2021-07-30 15:42:54 GMT 32.303528 -81.843040 34,000 201 467 0
2021-07-30 15:42:52 GMT 32.309021 -81.840630 34,000 201 467 64
2021-07-30 15:42:43 GMT 32.327827 -81.832230 34,000 201 467 0
2021-07-30 15:42:33 GMT 32.345444 -81.824417 34,000 201 467 0
2021-07-30 15:42:21 GMT 32.371353 -81.812828 34,000 201 467 0
2021-07-30 15:42:14 GMT 32.385136 -81.806725 34,000 201 467 0
2021-07-30 15:42:03 GMT 32.407993 -81.796463 34,000 201 467 -64
2021-07-30 15:41:54 GMT 32.425591 -81.788620 34,000 201 467 0
2021-07-30 15:41:44 GMT 32.446609 -81.779259 34,000 201 467 0
2021-07-30 15:41:34 GMT 32.467209 -81.770065 34,000 201 467 0
2021-07-30 15:41:23 GMT 32.489456 -81.760086 34,000 201 466 64
2021-07-30 15:41:12 GMT 32.510826 -81.750504 34,000 201 465 64
2021-07-30 15:41:02 GMT 32.531590 -81.741196 34,000 201 465 64
2021-07-30 15:40:52 GMT 32.552582 -81.731796 34,000 201 465 -64
2021-07-30 15:40:41 GMT 32.572906 -81.722679 34,000 201 465 0
2021-07-30 15:40:31 GMT 32.594055 -81.713181 34,000 201 465 0
2021-07-30 15:40:24 GMT 32.608932 -81.706474 34,000 202 465 0
2021-07-30 15:40:21 GMT 32.614380 -81.704002 34,000 201 464 0
2021-07-30 15:40:11 GMT 32.634659 -81.694885 34,000 201 464 0
2021-07-30 15:40:00 GMT 32.655975 -81.685310 34,000 201 464 64
2021-07-30 15:39:50 GMT 32.676498 -81.676102 34,000 201 464 64
2021-07-30 15:39:40 GMT 32.697407 -81.666649 34,000 201 464 0
2021-07-30 15:39:29 GMT 32.718338 -81.657204 34,000 201 464 0
2021-07-30 15:39:19 GMT 32.738251 -81.648193 34,000 202 465 64
2021-07-30 15:39:13 GMT 32.750473 -81.642647 34,000 202 465 0
2021-07-30 15:39:09 GMT 32.758110 -81.639122 34,000 202 465 0
2021-07-30 15:39:05 GMT 32.768372 -81.634460 34,000 202 465 0
2021-07-30 15:38:59 GMT 32.778828 -81.629654 34,000 202 465 -64
2021-07-30 15:38:52 GMT 32.792313 -81.623474 34,000 202 465 0
2021-07-30 15:38:49 GMT 32.800140 -81.619904 34,000 202 465 0
2021-07-30 15:38:44 GMT 32.810158 -81.615250 34,000 202 465 0
2021-07-30 15:38:38 GMT 32.820007 -81.610733 34,000 202 465 0
2021-07-30 15:38:28 GMT 32.841953 -81.600616 34,000 202 466 0
2021-07-30 15:38:22 GMT 32.853012 -81.595566 34,000 202 466 64
2021-07-30 15:38:18 GMT 32.862480 -81.591202 34,000 202 467 0
2021-07-30 15:38:08 GMT 32.881851 -81.582443 34,000 201 466 0
2021-07-30 15:38:03 GMT 32.894028 -81.577003 34,000 201 467 0
2021-07-30 15:37:58 GMT 32.902981 -81.573151 34,000 200 467 0
2021-07-30 15:37:46 GMT 32.925797 -81.563377 34,000 200 468 0
2021-07-30 15:37:35 GMT 32.948277 -81.553757 34,000 200 469 0
2021-07-30 15:37:25 GMT 32.968323 -81.545197 34,000 200 469 -64
2021-07-30 15:37:13 GMT 32.993088 -81.534592 34,000 200 469 0
2021-07-30 15:37:05 GMT 33.014008 -81.525696 34,000 200 470 0
2021-07-30 15:36:56 GMT 33.028336 -81.519600 34,000 200 470 0
2021-07-30 15:36:55 GMT 33.030991 -81.518448 34,000 200 470 0
2021-07-30 15:36:43 GMT 33.053951 -81.508636 34,000 200 470 0
2021-07-30 15:36:28 GMT 33.085739 -81.495041 34,000 200 470 0
2021-07-30 15:36:23 GMT 33.096451 -81.490540 34,000 200 470 0
2021-07-30 15:36:16 GMT 33.117142 -81.481697 34,000 200 471 0
2021-07-30 15:35:53 GMT 33.157295 -81.464462 34,000 200 471 0
2021-07-30 15:35:38 GMT 33.187454 -81.451538 34,000 200 471 0
2021-07-30 15:35:32 GMT 33.201195 -81.445633 34,000 200 471 -64
2021-07-30 15:35:00 GMT 33.266182 -81.417770 34,000 201 470 -64
2021-07-30 15:34:56 GMT 33.274384 -81.414238 34,000 202 470 -64
2021-07-30 15:34:55 GMT 33.275986 -81.413528 34,000 203 469 0
2021-07-30 15:34:20 GMT 33.347046 -81.377579 34,000 204 469 0
2021-07-30 15:34:13 GMT 33.361240 -81.370293 34,000 204 469 0
2021-07-30 15:34:02 GMT 33.383194 -81.359032 34,000 204 469 64
2021-07-30 15:33:52 GMT 33.401695 -81.349503 34,000 204 468 0
2021-07-30 15:33:43 GMT 33.419434 -81.340309 34,000 204 468 0
2021-07-30 15:33:33 GMT 33.439957 -81.329697 34,000 204 468 0
2021-07-30 15:33:05 GMT 33.495544 -81.301125 34,000 204 468 0
2021-07-30 15:33:03 GMT 33.501526 -81.298058 34,000 204 468 0
2021-07-30 15:32:54 GMT 33.519241 -81.288963 34,000 204 468 0
2021-07-30 15:32:51 GMT 33.523849 -81.286606 34,000 204 468 0
2021-07-30 15:32:46 GMT 33.534210 -81.281303 34,000 204 468 0
2021-07-30 15:32:41 GMT 33.543961 -81.276299 34,000 204 468 0
2021-07-30 15:32:28 GMT 33.572636 -81.261581 34,000 204 467 0
2021-07-30 15:32:19 GMT 33.588139 -81.253624 34,000 204 467 0
2021-07-30 15:32:09 GMT 33.625076 -81.234535 34,000 204 466 0
2021-07-30 15:32:01 GMT 33.625076 -81.234535 34,000 204 467 0
2021-07-30 15:31:50 GMT 33.645309 -81.224113 34,000 204 467 64
2021-07-30 15:31:40 GMT 33.706196 -81.192574 34,000 204 466 0
2021-07-30 15:31:19 GMT 33.706196 -81.192574 34,000 204 466 0
2021-07-30 15:31:08 GMT 33.733978 -81.178261 34,000 204 466 0
2021-07-30 15:30:58 GMT 33.748260 -81.170860 34,000 204 466 0
2021-07-30 15:30:38 GMT 33.788727 -81.150009 34,000 204 467 0
2021-07-30 15:30:31 GMT 33.804565 -81.141769 34,000 204 467 0
2021-07-30 15:30:28 GMT 33.808331 -81.139809 34,000 204 467 0
2021-07-30 15:30:24 GMT 33.816479 -81.135574 34,000 204 467 0
2021-07-30 15:30:18 GMT 33.829975 -81.128593 34,000 204 467 0
2021-07-30 15:30:12 GMT 33.843292 -81.121735 34,000 204 467 0
2021-07-30 15:30:07 GMT 33.850021 -81.118225 34,000 204 467 0
2021-07-30 15:29:56 GMT 33.870483 -81.107635 34,000 204 467 -64
2021-07-30 15:29:47 GMT 33.890305 -81.097260 34,000 204 466 0
2021-07-30 15:29:36 GMT 33.911545 -81.086220 34,000 204 466 64
2021-07-30 15:29:25 GMT 33.932556 -81.075287 34,000 204 467 0
2021-07-30 15:29:16 GMT 33.951782 -81.065315 34,000 204 467 -64
2021-07-30 15:29:04 GMT 33.973846 -81.053825 34,000 204 467 0
2021-07-30 15:28:55 GMT 33.992676 -81.044022 34,000 204 467 64
2021-07-30 15:28:45 GMT 34.013950 -81.032982 34,000 204 467 -64
2021-07-30 15:28:34 GMT 34.033409 -81.022797 34,000 204 467 0
2021-07-30 15:28:27 GMT 34.049057 -81.014587 34,000 204 467 0
2021-07-30 15:28:23 GMT 34.055012 -81.011467 34,000 204 466 0
2021-07-30 15:28:13 GMT 34.082150 -80.997276 34,000 204 466 -64
2021-07-30 15:28:05 GMT 34.092087 -80.992111 34,000 204 466 0
2021-07-30 15:28:00 GMT 34.103165 -80.986336 34,000 204 467 -64
2021-07-30 15:27:55 GMT 34.112316 -80.981544 34,000 204 466 0
2021-07-30 15:27:48 GMT 34.126190 -80.974274 34,000 204 466 -64
2021-07-30 15:27:45 GMT 34.131546 -80.971481 34,000 204 466 0
2021-07-30 15:27:38 GMT 34.147797 -80.962959 34,000 204 466 0
2021-07-30 15:27:35 GMT 34.151550 -80.960999 34,000 204 466 0
2021-07-30 15:27:25 GMT 34.172195 -80.950233 34,000 204 466 64
2021-07-30 15:27:12 GMT 34.196342 -80.937592 34,000 204 466 0
2021-07-30 15:27:06 GMT 34.208027 -80.931534 34,000 204 465 0
2021-07-30 15:27:03 GMT 34.214767 -80.927986 34,000 204 465 0
2021-07-30 15:26:59 GMT 34.223434 -80.923462 34,000 204 465 0
2021-07-30 15:26:51 GMT 34.238846 -80.915398 34,000 204 464 64
2021-07-30 15:26:40 GMT 34.262356 -80.903091 34,000 204 464 -64
2021-07-30 15:26:32 GMT 34.274734 -80.896591 34,000 204 463 0
2021-07-30 15:26:25 GMT 34.289703 -80.888748 34,000 204 463 0
2021-07-30 15:26:22 GMT 34.295219 -80.885864 34,000 204 463 0
2021-07-30 15:26:15 GMT 34.308609 -80.878822 34,000 204 463 0
2021-07-30 15:26:07 GMT 34.331406 -80.866882 34,000 204 463 0
2021-07-30 15:26:02 GMT 34.335709 -80.864586 34,000 204 463 0
2021-07-30 15:25:52 GMT 34.354622 -80.854683 34,000 204 463 0
2021-07-30 15:25:49 GMT 34.362255 -80.850677 34,000 204 463 0
2021-07-30 15:25:44 GMT 34.370132 -80.846596 34,000 204 463 0
2021-07-30 15:25:40 GMT 34.376999 -80.843010 34,000 204 462 0
2021-07-30 15:25:33 GMT 34.390560 -80.835854 34,000 204 462 0
2021-07-30 15:25:30 GMT 34.398788 -80.831520 34,000 204 462 0
2021-07-30 15:25:27 GMT 34.408035 -80.826698 34,000 204 462 0
2021-07-30 15:25:23 GMT 34.410965 -80.825127 34,000 204 462 0
2021-07-30 15:25:17 GMT 34.424103 -80.818230 34,000 204 462 0
2021-07-30 15:25:09 GMT 34.437836 -80.810944 34,000 204 462 0
2021-07-30 15:25:06 GMT 34.443512 -80.807922 34,000 204 462 0
2021-07-30 15:25:00 GMT 34.457657 -80.800407 34,000 204 463 0
2021-07-30 15:24:57 GMT 34.462738 -80.797714 34,000 204 463 -64
2021-07-30 15:24:51 GMT 34.473312 -80.792114 34,000 204 463 0
2021-07-30 15:24:47 GMT 34.481567 -80.787735 34,000 204 463 0
2021-07-30 15:24:41 GMT 34.492741 -80.781784 34,000 204 463 -64
2021-07-30 15:24:38 GMT 34.500423 -80.777779 34,000 204 462 0
2021-07-30 15:24:32 GMT 34.511032 -80.772156 34,000 204 463 0
2021-07-30 15:24:28 GMT 34.520065 -80.767426 34,000 204 463 0
2021-07-30 15:24:26 GMT 34.522614 -80.766045 34,000 204 463 0
2021-07-30 15:24:17 GMT 34.542274 -80.755692 34,000 204 463 0
2021-07-30 15:24:07 GMT 34.560383 -80.746140 34,000 204 463 0
2021-07-30 15:24:00 GMT 34.573929 -80.739029 34,000 204 463 0
2021-07-30 15:23:57 GMT 34.579651 -80.736000 34,000 204 463 0
2021-07-30 15:23:54 GMT 34.589310 -80.730957 34,000 204 463 64
2021-07-30 15:23:47 GMT 34.600342 -80.725128 34,000 204 463 0
2021-07-30 15:23:41 GMT 34.612701 -80.718575 34,000 204 463 0
2021-07-30 15:23:37 GMT 34.620571 -80.714378 34,000 204 463 -64
2021-07-30 15:23:30 GMT 34.631973 -80.708366 34,000 204 463 64
2021-07-30 15:23:27 GMT 34.639427 -80.704369 34,000 204 463 64
2021-07-30 15:23:24 GMT 34.645340 -80.701248 34,000 204 463 0
2021-07-30 15:23:17 GMT 34.659260 -80.693832 34,000 204 463 -64
2021-07-30 15:23:15 GMT 34.665161 -80.690712 34,000 204 463 0
2021-07-30 15:23:09 GMT 34.676331 -80.684769 34,000 204 462 0
2021-07-30 15:23:06 GMT 34.682255 -80.681648 34,000 204 462 0
2021-07-30 15:22:58 GMT 34.697571 -80.673576 34,000 204 463 0
2021-07-30 15:22:55 GMT 34.702457 -80.671005 34,000 204 463 0
2021-07-30 15:22:47 GMT 34.716797 -80.663399 34,000 204 463 -64
2021-07-30 15:22:44 GMT 34.722897 -80.660194 34,000 204 463 -64
2021-07-30 15:22:38 GMT 34.737839 -80.652237 34,000 204 463 0
2021-07-30 15:22:35 GMT 34.743713 -80.649124 34,000 204 463 0
2021-07-30 15:22:26 GMT 34.759254 -80.640907 34,000 204 463 64
2021-07-30 15:22:24 GMT 34.763168 -80.638809 34,000 204 463 64
2021-07-30 15:22:16 GMT 34.779694 -80.630005 34,000 204 463 0
2021-07-30 15:22:12 GMT 34.785603 -80.626884 34,000 204 463 0
2021-07-30 15:22:07 GMT 34.796997 -80.620872 34,000 204 463 0
2021-07-30 15:22:04 GMT 34.804455 -80.616875 34,000 204 463 -64
2021-07-30 15:21:58 GMT 34.814278 -80.611671 34,000 204 463 0
2021-07-30 15:21:55 GMT 34.820160 -80.608482 34,000 204 463 0
2021-07-30 15:21:53 GMT 34.823914 -80.606522 34,000 204 463 64
2021-07-30 15:21:48 GMT 34.840988 -80.597382 34,000 204 463 0
2021-07-30 15:21:45 GMT 34.840988 -80.597382 34,000 204 463 -64
2021-07-30 15:21:42 GMT 34.844330 -80.595589 34,000 204 463 -64
2021-07-30 15:21:34 GMT 34.861015 -80.586662 34,000 204 463 64
2021-07-30 15:21:31 GMT 34.866486 -80.583710 34,000 204 463 64
2021-07-30 15:21:24 GMT 34.880798 -80.576019 34,000 204 463 0
2021-07-30 15:21:21 GMT 34.886524 -80.572990 34,000 204 463 0
2021-07-30 15:21:15 GMT 34.898071 -80.566811 34,000 204 463 0
2021-07-30 15:21:12 GMT 34.905750 -80.562744 34,000 204 463 0
2021-07-30 15:21:04 GMT 34.920456 -80.554840 34,000 204 463 0
2021-07-30 15:21:01 GMT 34.926544 -80.551590 34,000 204 463 64
2021-07-30 15:20:54 GMT 34.940899 -80.543922 34,000 204 463 0
2021-07-30 15:20:50 GMT 34.947556 -80.540375 34,000 204 463 0
2021-07-30 15:20:46 GMT 34.955795 -80.535950 34,000 204 463 0
2021-07-30 15:20:41 GMT 34.967194 -80.529839 34,000 204 464 -64
2021-07-30 15:20:34 GMT 34.980377 -80.522781 34,000 204 465 0
2021-07-30 15:20:30 GMT 34.986877 -80.519302 34,000 204 465 0
2021-07-30 15:20:22 GMT 35.003448 -80.510506 34,000 204 465 -64
2021-07-30 15:20:19 GMT 35.008213 -80.507927 34,000 204 466 0
2021-07-30 15:20:13 GMT 35.020828 -80.501175 34,000 204 466 0
2021-07-30 15:20:09 GMT 35.029541 -80.496544 34,000 204 467 -64
2021-07-30 15:20:05 GMT 35.038239 -80.491905 34,000 204 467 -128
2021-07-30 15:20:02 GMT 35.042618 -80.489555 34,000 204 467 0
2021-07-30 15:19:59 GMT 35.048344 -80.486526 34,000 204 467 -64
2021-07-30 15:19:52 GMT 35.062042 -80.479225 34,000 204 467 64
2021-07-30 15:19:49 GMT 35.068588 -80.475807 34,000 204 467 64
2021-07-30 15:19:42 GMT 35.084061 -80.467567 34,000 204 467 -64
2021-07-30 15:19:38 GMT 35.091961 -80.463348 34,000 204 467 -128
2021-07-30 15:19:34 GMT 35.099075 -80.459549 34,000 204 467 64
2021-07-30 15:19:31 GMT 35.105835 -80.455971 34,000 204 467 0
2021-07-30 15:19:28 GMT 35.109791 -80.453857 34,000 204 467 0
2021-07-30 15:19:22 GMT 35.120087 -80.448341 34,000 204 467 0
2021-07-30 15:19:18 GMT 35.130386 -80.442848 34,000 204 467 0
2021-07-30 15:19:11 GMT 35.144241 -80.435432 34,000 204 466 0
2021-07-30 15:19:07 GMT 35.150757 -80.431938 34,000 204 466 0
2021-07-30 15:19:03 GMT 35.161240 -80.426369 34,000 204 466 0
2021-07-30 15:19:00 GMT 35.164764 -80.424461 34,000 204 466 0
2021-07-30 15:18:57 GMT 35.171101 -80.421066 34,000 204 466 64
2021-07-30 15:18:52 GMT 35.180969 -80.415771 34,000 204 466 64
2021-07-30 15:18:47 GMT 35.191864 -80.409943 34,000 204 466 0
2021-07-30 15:18:43 GMT 35.197777 -80.406815 34,000 204 466 0
2021-07-30 15:18:39 GMT 35.208618 -80.400978 34,000 204 465 -64
2021-07-30 15:18:35 GMT 35.215137 -80.397491 34,000 204 465 128
2021-07-30 15:18:26 GMT 35.233658 -80.387589 34,000 204 464 0
2021-07-30 15:18:18 GMT 35.249817 -80.378952 34,000 204 463 -64
2021-07-30 15:18:15 GMT 35.258804 -80.374046 34,000 204 462 -64
2021-07-30 15:18:07 GMT 35.269604 -80.368263 34,000 205 461 0
2021-07-30 15:18:04 GMT 35.276596 -80.364418 34,000 205 461 0
2021-07-30 15:17:57 GMT 35.289505 -80.357437 34,000 205 461 0
2021-07-30 15:17:53 GMT 35.295547 -80.354118 34,000 205 461 0
2021-07-30 15:17:48 GMT 35.307777 -80.347458 34,000 205 460 0
2021-07-30 15:17:44 GMT 35.315964 -80.342957 34,000 205 460 0
2021-07-30 15:17:36 GMT 35.330124 -80.335190 34,000 205 460 64
2021-07-30 15:17:33 GMT 35.335754 -80.332092 34,000 205 460 0
2021-07-30 15:17:26 GMT 35.351440 -80.323395 34,000 205 459 64
2021-07-30 15:17:23 GMT 35.356476 -80.320587 34,000 205 459 0
2021-07-30 15:17:14 GMT 35.372112 -80.311813 34,000 205 459 0
2021-07-30 15:17:11 GMT 35.376953 -80.309128 34,000 205 459 0
2021-07-30 15:17:05 GMT 35.389942 -80.301880 34,000 205 459 -64
2021-07-30 15:17:02 GMT 35.397858 -80.297493 34,000 205 459 0
2021-07-30 15:16:53 GMT 35.415070 -80.287910 34,000 205 460 0
2021-07-30 15:16:49 GMT 35.422668 -80.283791 34,000 205 459 0
2021-07-30 15:16:45 GMT 35.428711 -80.280533 34,000 204 459 64
2021-07-30 15:16:40 GMT 35.438076 -80.275520 33,975 204 460 64
2021-07-30 15:16:33 GMT 35.451809 -80.268394 33,975 203 461 0
2021-07-30 15:16:29 GMT 35.459911 -80.264305 34,000 202 461 -64
2021-07-30 15:16:22 GMT 35.472794 -80.258041 34,000 202 461 0
2021-07-30 15:16:19 GMT 35.481136 -80.253960 34,000 202 461 64
2021-07-30 15:16:14 GMT 35.490646 -80.249290 34,000 202 463 -64
2021-07-30 15:16:11 GMT 35.495407 -80.247002 34,000 202 464 -64
2021-07-30 15:16:08 GMT 35.500595 -80.244431 34,000 202 464 -64
2021-07-30 15:16:03 GMT 35.511768 -80.238998 34,000 202 466 -64
2021-07-30 15:15:59 GMT 35.521820 -80.234123 34,000 202 469 -64
2021-07-30 15:15:56 GMT 35.525848 -80.232124 34,000 202 470 0
2021-07-30 15:15:51 GMT 35.537567 -80.226402 34,000 202 472 64
2021-07-30 15:15:47 GMT 35.545486 -80.222572 34,000 202 473 0
2021-07-30 15:15:43 GMT 35.553864 -80.218506 34,000 202 475 0
2021-07-30 15:15:39 GMT 35.558743 -80.216087 34,000 202 476 -64
2021-07-30 15:15:36 GMT 35.566544 -80.212273 34,000 202 477 -64
2021-07-30 15:15:29 GMT 35.579681 -80.205856 34,000 202 479 0
2021-07-30 15:15:26 GMT 35.586868 -80.202309 34,000 202 479 64
2021-07-30 15:15:21 GMT 35.596115 -80.197792 34,000 202 479 0
2021-07-30 15:15:17 GMT 35.607201 -80.192307 34,000 202 479 0
2021-07-30 15:15:09 GMT 35.621841 -80.185143 34,000 202 480 -64
2021-07-30 15:15:04 GMT 35.631317 -80.180504 34,000 202 480 -64
2021-07-30 15:14:59 GMT 35.644535 -80.174072 34,000 202 480 0
2021-07-30 15:14:55 GMT 35.650963 -80.170921 34,000 202 480 -64
2021-07-30 15:14:51 GMT 35.660225 -80.166359 34,000 202 480 0
2021-07-30 15:14:48 GMT 35.664787 -80.164139 34,000 202 480 0
2021-07-30 15:14:44 GMT 35.672607 -80.160316 34,000 202 480 0
2021-07-30 15:14:38 GMT 35.685642 -80.153915 34,000 202 480 0
2021-07-30 15:14:35 GMT 35.693481 -80.150124 34,000 202 480 0
2021-07-30 15:14:29 GMT 35.703186 -80.145378 34,000 202 480 -64
2021-07-30 15:14:26 GMT 35.711433 -80.141289 34,000 202 480 0
2021-07-30 15:14:23 GMT 35.716599 -80.138802 34,000 202 480 0
2021-07-30 15:14:20 GMT 35.724884 -80.134735 34,000 202 480 0
2021-07-30 15:14:17 GMT 35.729820 -80.132294 34,000 202 480 0
2021-07-30 15:14:13 GMT 35.738712 -80.127968 34,000 202 480 64
2021-07-30 15:14:10 GMT 35.744888 -80.124947 34,000 202 480 0
2021-07-30 15:14:07 GMT 35.750023 -80.122414 34,000 202 480 0
2021-07-30 15:14:03 GMT 35.757286 -80.118851 34,000 202 480 0
2021-07-30 15:13:57 GMT 35.773132 -80.111046 34,000 202 480 0
2021-07-30 15:13:52 GMT 35.780979 -80.107224 34,000 202 479 0
2021-07-30 15:13:48 GMT 35.789246 -80.103149 34,000 202 479 0
2021-07-30 15:13:45 GMT 35.797668 -80.099030 34,000 202 479 0
2021-07-30 15:13:41 GMT 35.802200 -80.096802 34,000 202 479 0
2021-07-30 15:13:38 GMT 35.810257 -80.092796 34,000 202 479 0
2021-07-30 15:13:34 GMT 35.818874 -80.088577 34,000 202 479 64
2021-07-30 15:13:31 GMT 35.824677 -80.085693 34,000 202 479 64
2021-07-30 15:13:26 GMT 35.835983 -80.080093 34,000 203 479 -64
2021-07-30 15:13:21 GMT 35.845413 -80.075394 34,000 203 479 -64
2021-07-30 15:13:14 GMT 35.861282 -80.067543 34,000 202 478 64
2021-07-30 15:13:11 GMT 35.865379 -80.065552 34,000 202 478 64
2021-07-30 15:13:07 GMT 35.875015 -80.060760 34,000 202 478 0
2021-07-30 15:13:02 GMT 35.883270 -80.056686 34,000 202 479 0
2021-07-30 15:12:59 GMT 35.889866 -80.053398 34,000 202 479 0
2021-07-30 15:12:55 GMT 35.900341 -80.048195 34,000 202 479 0
2021-07-30 15:12:52 GMT 35.910629 -80.043114 34,000 202 479 0
2021-07-30 15:12:49 GMT 35.910629 -80.043114 34,000 202 479 0
2021-07-30 15:12:46 GMT 35.917007 -80.039963 34,000 202 479 0
2021-07-30 15:12:42 GMT 35.927307 -80.034828 34,000 203 479 0
2021-07-30 15:12:39 GMT 35.932617 -80.032196 34,000 203 479 0
2021-07-30 15:12:34 GMT 35.943329 -80.026878 34,000 203 479 0
2021-07-30 15:12:31 GMT 35.946426 -80.025352 34,000 203 479 0
2021-07-30 15:12:28 GMT 35.954018 -80.021553 34,000 203 479 0
2021-07-30 15:12:24 GMT 35.960587 -80.018234 34,000 203 479 0
2021-07-30 15:12:21 GMT 35.968399 -80.014366 34,000 203 479 0
2021-07-30 15:12:18 GMT 35.975784 -80.010628 34,000 203 479 0
2021-07-30 15:12:14 GMT 35.992050 -80.002556 34,000 202 479 -64
2021-07-30 15:12:10 GMT 35.992050 -80.002556 34,000 203 478 -64
2021-07-30 15:12:07 GMT 35.998032 -79.999580 34,000 204 477 -64
2021-07-30 15:12:03 GMT 36.006729 -79.994949 34,000 205 476 0
2021-07-30 15:11:59 GMT 36.013790 -79.990990 34,000 206 475 0
2021-07-30 15:11:56 GMT 36.018955 -79.987946 34,000 207 474 64
2021-07-30 15:11:52 GMT 36.027191 -79.982872 34,000 209 472 64
2021-07-30 15:11:48 GMT 36.035522 -79.977379 34,000 210 472 64
2021-07-30 15:11:44 GMT 36.044048 -79.971352 34,000 213 470 64
2021-07-30 15:11:38 GMT 36.053543 -79.964226 34,000 213 470 0
2021-07-30 15:11:35 GMT 36.059597 -79.959435 34,000 214 469 0
2021-07-30 15:11:32 GMT 36.071980 -79.948975 34,000 217 467 -64
2021-07-30 15:11:28 GMT 36.071980 -79.948975 34,000 217 467 -64
2021-07-30 15:11:24 GMT 36.078777 -79.942833 34,000 218 466 0
2021-07-30 15:11:20 GMT 36.086269 -79.935646 34,000 219 465 64
2021-07-30 15:11:17 GMT 36.095627 -79.926300 34,000 220 466 0
2021-07-30 15:11:14 GMT 36.095627 -79.926300 34,000 219 465 0
2021-07-30 15:11:10 GMT 36.103168 -79.918755 34,000 219 465 0
2021-07-30 15:11:07 GMT 36.109035 -79.912918 34,000 219 465 0
2021-07-30 15:11:03 GMT 36.115273 -79.906723 34,000 219 465 0
2021-07-30 15:10:59 GMT 36.119461 -79.902573 34,000 219 465 0
2021-07-30 15:10:56 GMT 36.125473 -79.896523 34,000 219 466 0
2021-07-30 15:10:52 GMT 36.133392 -79.888687 34,000 219 466 0
2021-07-30 15:10:48 GMT 36.138565 -79.883537 34,000 219 466 0
2021-07-30 15:10:45 GMT 36.145298 -79.876862 34,000 219 466 0
2021-07-30 15:10:42 GMT 36.154999 -79.867172 34,000 219 465 -64
2021-07-30 15:10:39 GMT 36.154999 -79.867172 34,000 219 465 -64
2021-07-30 15:10:35 GMT 36.160381 -79.861839 34,000 219 465 0
2021-07-30 15:10:31 GMT 36.167923 -79.854301 34,000 219 465 0
2021-07-30 15:10:27 GMT 36.173950 -79.848289 34,000 219 465 0
2021-07-30 15:10:24 GMT 36.178303 -79.843956 34,000 220 464 0
2021-07-30 15:10:20 GMT 36.185669 -79.836617 34,000 220 464 64
2021-07-30 15:10:17 GMT 36.192169 -79.830093 34,000 220 464 64
2021-07-30 15:10:14 GMT 36.195854 -79.826424 34,000 220 464 64
2021-07-30 15:10:11 GMT 36.200363 -79.821915 34,000 220 464 0
2021-07-30 15:10:08 GMT 36.207184 -79.815041 34,000 220 464 0
2021-07-30 15:10:05 GMT 36.211716 -79.810524 34,000 220 464 0
2021-07-30 15:10:01 GMT 36.217918 -79.804337 34,000 220 464 64
2021-07-30 15:09:58 GMT 36.223087 -79.799133 34,000 220 464 64
2021-07-30 15:09:54 GMT 36.230953 -79.791245 34,000 220 465 0
2021-07-30 15:09:51 GMT 36.235931 -79.786263 34,000 220 465 0
2021-07-30 15:09:47 GMT 36.246597 -79.775505 34,000 220 464 0
2021-07-30 15:09:44 GMT 36.246597 -79.775505 34,000 220 464 0
2021-07-30 15:09:41 GMT 36.250946 -79.771156 34,000 220 465 0
2021-07-30 15:09:37 GMT 36.258282 -79.763725 34,000 220 464 0
2021-07-30 15:09:33 GMT 36.263496 -79.758583 34,000 220 464 -64
2021-07-30 15:09:30 GMT 36.268478 -79.753532 34,000 220 464 0
2021-07-30 15:09:27 GMT 36.274529 -79.747536 34,000 219 464 0
2021-07-30 15:09:24 GMT 36.280197 -79.741859 34,000 219 464 0
2021-07-30 15:09:20 GMT 36.286213 -79.735786 34,000 220 464 0
2021-07-30 15:09:17 GMT 36.291183 -79.730820 34,000 220 464 0
2021-07-30 15:09:14 GMT 36.295532 -79.726463 34,000 220 464 0
2021-07-30 15:09:11 GMT 36.301025 -79.720917 34,000 220 464 0
2021-07-30 15:09:07 GMT 36.308670 -79.713196 34,000 220 463 0
2021-07-30 15:09:03 GMT 36.313019 -79.708839 34,000 220 463 0
2021-07-30 15:08:59 GMT 36.320335 -79.701485 34,000 220 463 64
2021-07-30 15:08:56 GMT 36.326618 -79.695114 34,000 220 464 0
2021-07-30 15:08:50 GMT 36.337280 -79.684357 34,000 220 464 0
2021-07-30 15:08:47 GMT 36.346405 -79.675133 34,000 220 464 0
2021-07-30 15:08:44 GMT 36.346405 -79.675133 34,000 220 464 0
2021-07-30 15:08:39 GMT 36.353527 -79.667885 34,000 220 464 0
2021-07-30 15:08:36 GMT 36.360325 -79.661049 34,000 220 464 64
2021-07-30 15:08:33 GMT 36.363350 -79.658005 34,000 220 464 64
2021-07-30 15:08:28 GMT 36.371635 -79.649590 34,000 220 464 0
2021-07-30 15:08:25 GMT 36.377781 -79.643402 34,000 220 464 -64
2021-07-30 15:08:22 GMT 36.381783 -79.639366 34,000 220 463 0
2021-07-30 15:08:18 GMT 36.390072 -79.630951 34,000 220 463 0
2021-07-30 15:08:13 GMT 36.397705 -79.623238 34,000 220 463 0
2021-07-30 15:08:10 GMT 36.401230 -79.619751 34,000 220 463 0
2021-07-30 15:08:07 GMT 36.407684 -79.613174 34,000 220 463 0
2021-07-30 15:08:04 GMT 36.412491 -79.608307 34,000 220 463 -64
2021-07-30 15:08:01 GMT 36.419167 -79.601616 34,000 220 463 0
2021-07-30 15:07:57 GMT 36.422981 -79.597755 34,000 220 463 0
2021-07-30 15:07:54 GMT 36.429268 -79.591393 34,000 220 462 0
2021-07-30 15:07:47 GMT 36.441376 -79.579185 34,000 220 462 0
2021-07-30 15:07:43 GMT 36.446865 -79.573624 34,000 220 462 -64
2021-07-30 15:07:40 GMT 36.453522 -79.566963 34,000 220 462 -64
2021-07-30 15:07:37 GMT 36.457489 -79.562927 34,000 220 462 -64
2021-07-30 15:07:34 GMT 36.469757 -79.550568 34,000 220 462 0
2021-07-30 15:07:29 GMT 36.469757 -79.550568 34,000 220 462 64
2021-07-30 15:07:26 GMT 36.475571 -79.544739 34,000 220 463 -64
2021-07-30 15:07:23 GMT 36.480743 -79.539528 34,000 220 462 64
2021-07-30 15:07:16 GMT 36.492531 -79.527634 34,000 220 463 -64
2021-07-30 15:07:13 GMT 36.497654 -79.522430 34,000 220 462 -64
2021-07-30 15:07:06 GMT 36.509941 -79.510040 34,000 220 462 0
2021-07-30 15:07:00 GMT 36.517761 -79.502151 34,000 220 462 64
2021-07-30 15:06:55 GMT 36.526886 -79.492950 34,000 220 463 64
2021-07-30 15:06:51 GMT 36.532566 -79.487251 34,000 220 463 0
2021-07-30 15:06:45 GMT 36.543041 -79.476677 34,000 220 463 -64
2021-07-30 15:06:42 GMT 36.549683 -79.469948 34,000 220 463 -64
2021-07-30 15:06:35 GMT 36.561291 -79.458153 34,000 220 463 0
2021-07-30 15:06:31 GMT 36.566597 -79.452774 34,000 220 461 64
2021-07-30 15:06:24 GMT 36.578476 -79.440651 34,000 220 461 0
2021-07-30 15:06:21 GMT 36.583603 -79.435501 34,000 220 461 -64
2021-07-30 15:06:14 GMT 36.596832 -79.422050 34,000 220 460 -64
2021-07-30 15:06:11 GMT 36.601135 -79.417709 34,000 220 460 -64
2021-07-30 15:06:03 GMT 36.612991 -79.405632 34,000 220 459 64
2021-07-30 15:06:00 GMT 36.617943 -79.400650 34,000 220 459 64
2021-07-30 15:05:53 GMT 36.631577 -79.386803 34,000 220 459 0
2021-07-30 15:05:49 GMT 36.635216 -79.383118 34,000 220 458 0
2021-07-30 15:05:43 GMT 36.646545 -79.371590 34,000 220 459 0
2021-07-30 15:05:40 GMT 36.651787 -79.366287 34,000 220 459 0
2021-07-30 15:05:33 GMT 36.662121 -79.355766 34,000 220 458 0
2021-07-30 15:05:29 GMT 36.669338 -79.348404 34,000 220 457 0
2021-07-30 15:05:21 GMT 36.681812 -79.335724 34,000 220 457 0
2021-07-30 15:05:18 GMT 36.701084 -79.316086 34,000 220 456 0
2021-07-30 15:05:12 GMT 36.701084 -79.316086 34,000 220 456 -64
2021-07-30 15:05:09 GMT 36.703217 -79.313911 34,000 220 456 0
2021-07-30 15:05:02 GMT 36.712864 -79.304047 34,000 220 456 0
2021-07-30 15:04:58 GMT 36.719707 -79.297035 34,000 220 456 0
2021-07-30 15:04:53 GMT 36.728691 -79.287865 34,000 220 456 0
2021-07-30 15:04:48 GMT 36.735069 -79.281380 34,000 220 456 0
2021-07-30 15:04:45 GMT 36.741760 -79.274597 34,000 220 456 0
2021-07-30 15:04:42 GMT 36.746986 -79.269218 34,000 220 456 0
2021-07-30 15:04:39 GMT 36.750896 -79.265244 34,000 220 456 64
2021-07-30 15:04:36 GMT 36.755272 -79.260750 34,000 220 456 64
2021-07-30 15:04:31 GMT 36.763458 -79.252396 34,000 220 456 0
2021-07-30 15:04:28 GMT 36.768173 -79.247589 34,000 220 456 0
2021-07-30 15:04:25 GMT 36.773430 -79.242226 34,000 220 457 0
2021-07-30 15:04:21 GMT 36.781902 -79.233574 34,000 220 457 0
2021-07-30 15:04:18 GMT 36.784508 -79.230888 34,000 220 458 0
2021-07-30 15:04:15 GMT 36.791382 -79.223846 34,000 220 458 0
2021-07-30 15:04:11 GMT 36.796783 -79.218292 34,000 220 458 0
2021-07-30 15:04:08 GMT 36.802059 -79.212944 34,000 220 458 0
2021-07-30 15:04:05 GMT 36.807457 -79.207397 34,000 220 458 0
2021-07-30 15:03:59 GMT 36.815323 -79.199295 34,000 220 458 -64
2021-07-30 15:03:56 GMT 36.821182 -79.193291 34,000 220 459 0
2021-07-30 15:03:53 GMT 36.824799 -79.189568 34,000 220 459 0
2021-07-30 15:03:47 GMT 36.835968 -79.178062 34,000 220 460 64
2021-07-30 15:03:44 GMT 36.842331 -79.171486 34,000 220 460 64
2021-07-30 15:03:40 GMT 36.848240 -79.165436 34,000 220 460 0
2021-07-30 15:03:36 GMT 36.853031 -79.160492 34,000 220 460 0
2021-07-30 15:03:33 GMT 36.858433 -79.154945 34,000 220 460 0
2021-07-30 15:03:29 GMT 36.869797 -79.143227 34,000 220 461 0
2021-07-30 15:03:26 GMT 36.869797 -79.143227 34,000 220 461 0
2021-07-30 15:03:23 GMT 36.876354 -79.136429 34,000 220 461 0
2021-07-30 15:03:18 GMT 36.884125 -79.128502 34,000 220 463 0
2021-07-30 15:03:15 GMT 36.889252 -79.123245 34,000 220 463 0
2021-07-30 15:03:11 GMT 36.893860 -79.118462 34,000 220 463 0
2021-07-30 15:03:06 GMT 36.904129 -79.107933 34,000 220 464 0
2021-07-30 15:03:02 GMT 36.917370 -79.094276 34,000 220 466 0
2021-07-30 15:02:57 GMT 36.917370 -79.094276 34,000 220 465 0
2021-07-30 15:02:54 GMT 36.924042 -79.087418 34,000 220 466 0
2021-07-30 15:02:48 GMT 36.934219 -79.077080 34,000 220 466 0
2021-07-30 15:02:44 GMT 36.941387 -79.069740 34,000 220 466 0
2021-07-30 15:02:41 GMT 36.946232 -79.064781 34,000 220 467 0
2021-07-30 15:02:36 GMT 36.953632 -79.057320 34,000 220 468 0
2021-07-30 15:02:33 GMT 36.958511 -79.052361 34,000 220 468 0
2021-07-30 15:02:30 GMT 36.963547 -79.047287 34,000 220 468 0
2021-07-30 15:02:27 GMT 36.969738 -79.040962 34,000 220 468 0
2021-07-30 15:02:24 GMT 36.975128 -79.035469 34,000 220 468 0
2021-07-30 15:02:20 GMT 36.980988 -79.029510 34,000 220 468 0
2021-07-30 15:02:13 GMT 36.992924 -79.017372 34,000 220 468 64
2021-07-30 15:02:09 GMT 36.998611 -79.011566 34,000 220 468 64
2021-07-30 15:02:06 GMT 37.004517 -79.005547 34,000 220 468 64
2021-07-30 15:02:03 GMT 37.017426 -78.992401 34,000 220 469 0
2021-07-30 15:01:59 GMT 37.017426 -78.992401 34,000 220 469 0
2021-07-30 15:01:56 GMT 37.020813 -78.989014 34,000 220 468 0
2021-07-30 15:01:52 GMT 37.028721 -78.980949 34,000 220 469 0
2021-07-30 15:01:48 GMT 37.034260 -78.975281 34,000 220 469 0
2021-07-30 15:01:44 GMT 37.041801 -78.967575 34,000 220 469 -64
2021-07-30 15:01:41 GMT 37.051205 -78.958023 34,000 220 469 0
2021-07-30 15:01:38 GMT 37.051205 -78.958023 34,000 220 469 0
2021-07-30 15:01:33 GMT 37.058945 -78.950150 34,000 220 468 0
2021-07-30 15:01:30 GMT 37.064804 -78.944130 34,000 220 468 0
2021-07-30 15:01:27 GMT 37.069016 -78.939865 34,000 220 468 -64
2021-07-30 15:01:24 GMT 37.075195 -78.933495 34,000 220 468 -64
2021-07-30 15:01:21 GMT 37.080048 -78.928528 34,000 220 468 -64
2021-07-30 15:01:18 GMT 37.084396 -78.924110 34,000 220 467 -64
2021-07-30 15:01:14 GMT 37.092133 -78.916199 34,000 220 466 -64
2021-07-30 15:01:09 GMT 37.098782 -78.909363 34,000 220 466 192
2021-07-30 15:01:06 GMT 37.103806 -78.904221 34,000 220 466 512
2021-07-30 15:01:02 GMT 37.117676 -78.890076 33,925 220 465 1024
2021-07-30 15:00:59 GMT 37.117676 -78.890076 33,850 220 466 1216
2021-07-30 15:00:55 GMT 37.121338 -78.886337 33,800 220 466 1280
2021-07-30 15:00:52 GMT 37.128159 -78.879326 33,725 220 466 1280
2021-07-30 15:00:48 GMT 37.134018 -78.873360 33,650 220 466 1216
2021-07-30 15:00:45 GMT 37.139702 -78.867569 33,575 220 466 1216
2021-07-30 15:00:41 GMT 37.147568 -78.859512 33,475 220 466 1216
2021-07-30 15:00:38 GMT 37.152084 -78.854851 33,425 220 467 1280
2021-07-30 15:00:34 GMT 37.156403 -78.850395 33,000 220 469 1344
2021-07-30 15:00:31 GMT 37.162792 -78.843918 33,275 220 468 1344
2021-07-30 15:00:25 GMT 37.173981 -78.832397 33,150 220 469 1344
2021-07-30 15:00:20 GMT 37.180714 -78.825531 32,975 220 469 1344
2021-07-30 15:00:14 GMT 37.196495 -78.809349 32,475 220 472 1344
2021-07-30 15:00:11 GMT 37.196495 -78.809349 32,475 220 472 1344
2021-07-30 15:00:07 GMT 37.208817 -78.796753 32,625 220 472 1344
2021-07-30 15:00:04 GMT 37.208817 -78.796753 31,950 220 472 1344
2021-07-30 15:00:01 GMT 37.213020 -78.792397 32,550 220 472 1408
2021-07-30 14:59:55 GMT 37.221954 -78.783249 32,475 220 472 1344
2021-07-30 14:59:51 GMT 37.229733 -78.775253 32,375 220 472 1344
2021-07-30 14:59:46 GMT 37.240036 -78.764671 32,250 220 472 1216
2021-07-30 14:59:41 GMT 37.247143 -78.757347 32,175 220 472 1088
2021-07-30 14:59:35 GMT 37.257111 -78.747078 32,075 220 472 1088
2021-07-30 14:59:31 GMT 37.275867 -78.727791 31,950 220 472 1024
2021-07-30 14:59:25 GMT 37.275867 -78.727791 31,875 220 472 960
2021-07-30 14:59:20 GMT 37.281639 -78.721939 31,750 220 471 960
2021-07-30 14:59:14 GMT 37.292625 -78.710655 31,725 220 471 960
2021-07-30 14:59:11 GMT 37.306126 -78.696739 31,675 220 471 960
2021-07-30 14:59:06 GMT 37.306126 -78.696739 31,600 220 471 960
2021-07-30 14:59:03 GMT 37.310547 -78.692261 31,550 220 471 1024
2021-07-30 14:58:57 GMT 37.320145 -78.682388 31,475 220 471 1024
2021-07-30 14:58:54 GMT 37.327587 -78.674767 31,400 220 471 1024
2021-07-30 14:58:50 GMT 37.334702 -78.667488 31,325 220 471 1024
2021-07-30 14:58:47 GMT 37.337540 -78.664566 31,300 220 471 1024
2021-07-30 14:58:43 GMT 37.345139 -78.656731 31,200 220 471 1088
2021-07-30 14:58:36 GMT 37.358322 -78.643234 31,050 220 471 1152
2021-07-30 14:58:33 GMT 37.363220 -78.638206 31,000 220 471 1088
2021-07-30 14:58:24 GMT 37.377861 -78.623123 30,800 220 471 1088
2021-07-30 14:58:21 GMT 37.381077 -78.619835 30,825 220 471 1088
2021-07-30 14:58:16 GMT 37.390015 -78.610641 30,725 220 471 1088
2021-07-30 14:58:13 GMT 37.395081 -78.605423 30,625 220 471 1088
2021-07-30 14:58:05 GMT 37.408028 -78.592010 30,550 220 471 1024
2021-07-30 14:58:00 GMT 37.418503 -78.581261 30,425 220 470 1088
2021-07-30 14:57:56 GMT 37.424042 -78.575531 30,375 220 471 1088
2021-07-30 14:57:53 GMT 37.431259 -78.568069 30,300 220 470 1088
2021-07-30 14:57:42 GMT 37.450058 -78.548622 30,075 220 470 1152
2021-07-30 14:57:36 GMT 37.458305 -78.540070 30,000 220 470 1088
2021-07-30 14:57:29 GMT 37.470364 -78.527527 29,850 220 470 1152
2021-07-30 14:57:23 GMT 37.479904 -78.517616 29,700 220 470 1344
2021-07-30 14:57:20 GMT 37.484940 -78.512337 29,675 220 470 1344
2021-07-30 14:57:15 GMT 37.493172 -78.503822 29,575 220 471 1280
2021-07-30 14:57:11 GMT 37.501556 -78.495094 29,450 220 471 1280
2021-07-30 14:57:03 GMT 37.514786 -78.481247 29,275 220 471 1472
2021-07-30 14:56:59 GMT 37.519501 -78.476395 29,225 220 472 1536
2021-07-30 14:56:54 GMT 37.528564 -78.466927 29,050 220 473 1664
2021-07-30 14:56:50 GMT 37.535156 -78.460030 28,800 220 473 1600
2021-07-30 14:56:43 GMT 37.546101 -78.448593 28,800 220 473 1152
2021-07-30 14:56:40 GMT 37.553318 -78.441010 28,725 220 473 1216
2021-07-30 14:56:32 GMT 37.566818 -78.426918 28,550 220 472 1088
2021-07-30 14:56:28 GMT 37.571686 -78.421814 28,525 220 467 960
2021-07-30 14:56:23 GMT 37.579899 -78.413185 28,400 220 472 1344
2021-07-30 14:56:19 GMT 37.589493 -78.403168 28,275 220 472 1216
2021-07-30 14:56:13 GMT 37.597046 -78.395226 28,200 220 472 1088
2021-07-30 14:56:08 GMT 37.605923 -78.385956 27,350 220 467 960
2021-07-30 14:56:02 GMT 37.617374 -78.374016 27,950 220 472 1280
2021-07-30 14:55:57 GMT 37.623047 -78.368050 27,375 220 465 832
2021-07-30 14:55:52 GMT 37.632458 -78.358192 27,800 220 470 960
2021-07-30 14:55:48 GMT 37.641163 -78.349121 27,700 220 470 1024
2021-07-30 14:55:40 GMT 37.653717 -78.335968 27,575 220 470 896
2021-07-30 14:55:37 GMT 37.657059 -78.332458 27,525 220 468 960
2021-07-30 14:55:29 GMT 37.670517 -78.318321 27,425 220 467 960
2021-07-30 14:55:25 GMT 37.676170 -78.312401 27,375 220 465 832
2021-07-30 14:55:21 GMT 37.684158 -78.304062 27,325 220 465 832
2021-07-30 14:55:17 GMT 37.692764 -78.295006 27,250 220 465 960
2021-07-30 14:55:13 GMT 37.696560 -78.291023 27,200 220 464 1024
2021-07-30 14:55:09 GMT 37.704941 -78.282204 27,125 220 462 832
2021-07-30 14:55:06 GMT 37.709732 -78.277168 27,075 220 462 832
2021-07-30 14:54:58 GMT 37.721512 -78.264748 26,975 220 461 832
2021-07-30 14:54:50 GMT 37.735104 -78.250481 26,850 220 459 960
2021-07-30 14:54:45 GMT 37.743210 -78.241882 26,775 220 457 960
2021-07-30 14:54:43 GMT 37.746460 -78.238434 26,725 220 457 960
2021-07-30 14:54:40 GMT 37.751495 -78.233116 26,700 221 457 896
2021-07-30 14:54:34 GMT 37.759781 -78.224411 26,650 221 455 960
2021-07-30 14:54:31 GMT 37.764450 -78.219444 26,575 220 454 1088
2021-07-30 14:54:28 GMT 37.769760 -78.213829 26,525 220 454 1088
2021-07-30 14:54:24 GMT 37.777496 -78.205650 26,425 220 452 1024
2021-07-30 14:54:20 GMT 37.782913 -78.199844 26,400 220 452 960
2021-07-30 14:54:17 GMT 37.788548 -78.193939 26,325 220 451 1152
2021-07-30 14:54:12 GMT 37.796413 -78.185638 26,200 220 450 1280
2021-07-30 14:54:07 GMT 37.805328 -78.176201 26,100 220 449 1024
2021-07-30 14:53:59 GMT 37.815903 -78.165154 25,975 220 447 1216
2021-07-30 14:53:56 GMT 37.821598 -78.159126 25,900 220 448 1216
2021-07-30 14:53:46 GMT 37.839844 -78.139908 25,650 220 445 1536
2021-07-30 14:53:40 GMT 37.847481 -78.131897 25,525 220 445 1536
2021-07-30 14:53:38 GMT 37.850143 -78.129036 25,475 220 445 1472
2021-07-30 14:53:34 GMT 37.857101 -78.121674 25,375 220 445 1344
2021-07-30 14:53:30 GMT 37.862518 -78.116020 25,350 220 444 1472
2021-07-30 14:53:27 GMT 37.868336 -78.109863 25,225 220 445 1472
2021-07-30 14:53:24 GMT 37.872757 -78.105194 25,150 220 444 1472
2021-07-30 14:53:21 GMT 37.877197 -78.100517 25,075 220 444 1536
2021-07-30 14:53:17 GMT 37.883057 -78.094383 24,975 220 444 1536
2021-07-30 14:53:13 GMT 37.890450 -78.086517 24,850 220 444 1536
2021-07-30 14:53:10 GMT 37.894089 -78.082695 24,800 220 444 1536
2021-07-30 14:53:07 GMT 37.899307 -78.077202 24,700 220 444 1600
2021-07-30 14:53:03 GMT 37.905121 -78.071068 24,575 220 444 1664
2021-07-30 14:53:00 GMT 37.909698 -78.066216 24,525 220 444 1536
2021-07-30 14:52:57 GMT 37.914597 -78.061073 23,600 220 444 1408
2021-07-30 14:52:54 GMT 37.920288 -78.055054 24,375 220 444 1344
2021-07-30 14:52:51 GMT 37.924850 -78.050217 24,275 220 443 1344
2021-07-30 14:52:48 GMT 37.928329 -78.046585 24,250 220 443 1408
2021-07-30 14:52:44 GMT 37.937119 -78.037292 24,125 220 443 1408
2021-07-30 14:52:40 GMT 37.950176 -78.023529 23,975 220 440 1088
2021-07-30 14:52:35 GMT 37.950176 -78.023529 23,950 220 440 1152
2021-07-30 14:52:29 GMT 37.959206 -78.013916 23,825 221 439 1280
2021-07-30 14:52:26 GMT 37.964813 -78.007957 23,750 221 439 1280
2021-07-30 14:52:23 GMT 37.968891 -78.003647 23,700 221 437 1216
2021-07-30 14:52:20 GMT 37.971962 -78.000359 23,650 221 437 1216
2021-07-30 14:52:17 GMT 37.976303 -77.995743 23,425 221 435 1344
2021-07-30 14:52:15 GMT 37.980515 -77.991302 23,400 221 436 1408
2021-07-30 14:52:12 GMT 37.986671 -77.984718 23,425 221 435 1344
2021-07-30 14:52:08 GMT 37.991142 -77.979942 23,400 221 435 1280
2021-07-30 14:52:05 GMT 37.996544 -77.974152 23,275 221 428 1024
2021-07-30 14:52:02 GMT 38.007156 -77.962898 23,250 221 430 1024
2021-07-30 14:51:58 GMT 38.007156 -77.962898 23,200 221 432 1088
2021-07-30 14:51:51 GMT 38.016769 -77.952614 23,075 221 429 1024
2021-07-30 14:51:48 GMT 38.022240 -77.946800 23,025 221 427 1024
2021-07-30 14:51:46 GMT 38.027222 -77.941490 22,975 221 424 960
2021-07-30 14:51:40 GMT 38.033409 -77.934921 22,900 221 424 1024
2021-07-30 14:51:36 GMT 38.040302 -77.927582 22,825 221 422 1024
2021-07-30 14:51:33 GMT 38.044491 -77.923103 22,700 221 418 1280
2021-07-30 14:51:30 GMT 38.048542 -77.918800 22,725 221 420 1152
2021-07-30 14:51:25 GMT 38.055817 -77.911064 22,625 221 418 1280
2021-07-30 14:51:21 GMT 38.064697 -77.901543 22,500 221 417 1216
2021-07-30 14:51:15 GMT 38.075169 -77.890381 22,300 221 413 1088
2021-07-30 14:51:12 GMT 38.075169 -77.890381 22,350 221 415 1088
2021-07-30 14:51:08 GMT 38.081219 -77.883987 22,275 221 412 1152
2021-07-30 14:51:04 GMT 38.087505 -77.877243 22,225 221 412 1152
2021-07-30 14:51:00 GMT 38.094627 -77.869598 22,075 221 410 1536
2021-07-30 14:50:52 GMT 38.106640 -77.856766 21,850 221 408 1600
2021-07-30 14:50:48 GMT 38.110291 -77.852859 21,800 221 408 1536
2021-07-30 14:50:42 GMT 38.119217 -77.843338 21,650 221 407 1536
2021-07-30 14:50:37 GMT 38.126266 -77.835800 21,500 221 406 1536
2021-07-30 14:50:32 GMT 38.134323 -77.827209 21,350 221 405 1664
2021-07-30 14:50:27 GMT 38.140343 -77.820763 21,225 221 405 1984
2021-07-30 14:50:24 GMT 38.146362 -77.814354 21,075 221 405 2048
2021-07-30 14:50:20 GMT 38.150677 -77.809715 20,975 221 405 2048
2021-07-30 14:50:17 GMT 38.154541 -77.805595 20,900 221 405 2048
2021-07-30 14:50:13 GMT 38.161148 -77.798569 20,725 221 405 2048
2021-07-30 14:50:11 GMT 38.164314 -77.795204 20,575 221 404 2112
2021-07-30 14:50:08 GMT 38.168739 -77.790489 20,550 221 404 2112
2021-07-30 14:50:03 GMT 38.175339 -77.783440 20,375 221 404 2112
2021-07-30 14:49:58 GMT 38.182938 -77.775314 20,200 221 403 1856
2021-07-30 14:49:51 GMT 38.193504 -77.764038 19,875 221 403 2176
2021-07-30 14:49:47 GMT 38.200253 -77.756874 19,800 221 403 2112
2021-07-30 14:49:42 GMT 38.205093 -77.751701 19,700 220 403 1664
2021-07-30 14:49:40 GMT 38.208542 -77.748032 19,650 220 401 1344
2021-07-30 14:49:37 GMT 38.212830 -77.743523 19,575 220 401 1472
2021-07-30 14:49:29 GMT 38.223175 -77.732475 19,375 220 398 1856
2021-07-30 14:49:26 GMT 38.227718 -77.727676 19,275 221 398 1920
2021-07-30 14:49:17 GMT 38.242523 -77.711914 18,925 221 396 1984
2021-07-30 14:49:09 GMT 38.252487 -77.701225 18,725 221 395 1792
2021-07-30 14:49:06 GMT 38.256676 -77.696747 18,625 221 394 1792
2021-07-30 14:49:01 GMT 38.263321 -77.689468 18,475 221 393 1856
2021-07-30 14:48:59 GMT 38.265930 -77.686607 18,425 219 394 1792
2021-07-30 14:48:55 GMT 38.270966 -77.681221 18,300 219 394 1728
2021-07-30 14:48:49 GMT 38.281208 -77.671547 17,925 214 394 1344
2021-07-30 14:48:45 GMT 38.286758 -77.667030 18,050 211 394 1536
2021-07-30 14:48:41 GMT 38.293404 -77.662170 17,925 206 395 1856
2021-07-30 14:48:34 GMT 38.303421 -77.655922 17,750 204 396 2048
2021-07-30 14:48:29 GMT 38.311890 -77.651482 17,575 200 397 2112
2021-07-30 14:48:26 GMT 38.318710 -77.648560 17,350 195 400 1856
2021-07-30 14:48:22 GMT 38.325153 -77.646233 17,325 196 399 1920
2021-07-30 14:48:19 GMT 38.333672 -77.643845 17,025 190 402 2240
2021-07-30 14:48:14 GMT 38.339172 -77.642662 16,800 189 404 2560
2021-07-30 14:48:10 GMT 38.357666 -77.639153 15,525 189 403 2368
2021-07-30 14:48:05 GMT 38.357666 -77.639153 16,625 189 404 2176
2021-07-30 14:48:02 GMT 38.362118 -77.638290 16,550 189 404 2112
2021-07-30 14:47:59 GMT 38.366959 -77.637398 16,450 189 403 2112
2021-07-30 14:47:54 GMT 38.377487 -77.635414 16,250 189 403 2368
2021-07-30 14:47:49 GMT 38.385765 -77.633873 16,075 189 402 2304
2021-07-30 14:47:43 GMT 38.398289 -77.631546 15,800 189 400 1920
2021-07-30 14:47:39 GMT 38.405273 -77.630211 15,700 189 399 1920
2021-07-30 14:47:33 GMT 38.415894 -77.628197 15,525 189 397 1984
2021-07-30 14:47:27 GMT 38.425709 -77.626404 15,325 189 395 1920
2021-07-30 14:47:23 GMT 38.435856 -77.624512 15,150 189 393 2240
2021-07-30 14:47:17 GMT 38.444138 -77.622948 14,950 189 393 2368
2021-07-30 14:47:14 GMT 38.450287 -77.621765 14,800 189 392 1856
2021-07-30 14:47:11 GMT 38.455307 -77.620796 14,750 189 391 1664
2021-07-30 14:47:08 GMT 38.461212 -77.619659 14,650 189 389 2368
2021-07-30 14:47:01 GMT 38.473515 -77.617310 14,375 189 389 2752
2021-07-30 14:46:58 GMT 38.478516 -77.616379 14,250 189 388 1792
2021-07-30 14:46:56 GMT 38.481895 -77.615662 14,175 189 389 2304
2021-07-30 14:46:53 GMT 38.487946 -77.614464 14,075 189 387 1728
2021-07-30 14:46:45 GMT 38.501774 -77.611755 13,800 189 385 2432
2021-07-30 14:46:43 GMT 38.506008 -77.610901 13,675 189 385 2624
2021-07-30 14:46:36 GMT 38.516949 -77.608704 13,450 190 383 2048
2021-07-30 14:46:32 GMT 38.525711 -77.606888 13,275 190 382 2240
2021-07-30 14:46:25 GMT 38.536736 -77.604614 13,000 190 381 2624
2021-07-30 14:46:21 GMT 38.544434 -77.603004 12,825 190 380 2368
2021-07-30 14:46:13 GMT 38.561779 -77.599426 12,575 190 376 1728
2021-07-30 14:46:11 GMT 38.561779 -77.599426 12,500 190 375 1856
2021-07-30 14:46:04 GMT 38.572403 -77.597328 12,275 189 373 2496
2021-07-30 14:46:01 GMT 38.579746 -77.595886 12,100 189 372 2944
2021-07-30 14:45:55 GMT 38.589478 -77.594116 11,850 188 371 2048
2021-07-30 14:45:50 GMT 38.597534 -77.592796 11,725 188 367 1024
2021-07-30 14:45:45 GMT 38.606979 -77.591309 11,625 187 363 896
2021-07-30 14:45:39 GMT 38.615501 -77.589966 11,575 187 358 832
2021-07-30 14:45:34 GMT 38.624222 -77.588676 11,475 187 352 1408
2021-07-30 14:45:29 GMT 38.632305 -77.587524 11,375 187 344 1280
2021-07-30 14:45:24 GMT 38.640152 -77.586403 11,225 187 343 1216
2021-07-30 14:45:19 GMT 38.648483 -77.585152 11,150 191 296 1344
2021-07-30 14:45:12 GMT 38.657730 -77.583656 11,100 188 329 448
2021-07-30 14:45:10 GMT 38.662426 -77.582886 11,050 191 296 1344
2021-07-30 14:45:07 GMT 38.666428 -77.582214 11,050 189 317 832
2021-07-30 14:45:02 GMT 38.673038 -77.580994 10,975 189 314 1024
2021-07-30 14:44:59 GMT 38.678207 -77.579956 10,925 190 310 1152
2021-07-30 14:44:52 GMT 38.687210 -77.578049 10,800 191 303 1088
2021-07-30 14:44:49 GMT 38.690964 -77.577209 9,950 191 296 1344
2021-07-30 14:44:46 GMT 38.696453 -77.575928 9,950 191 296 1344
2021-07-30 14:44:42 GMT 38.704460 -77.573975 10,475 191 291 2240
2021-07-30 14:44:37 GMT 38.707115 -77.573303 9,950 192 290 3200
2021-07-30 14:44:30 GMT 38.715729 -77.571182 10,050 192 290 3264
2021-07-30 14:44:27 GMT 38.722057 -77.569580 9,800 191 290 3136
2021-07-30 14:44:21 GMT 38.728855 -77.568054 9,550 188 292 2560
2021-07-30 14:44:19 GMT 38.733837 -77.567322 9,400 184 291 2176
2021-07-30 14:44:09 GMT 38.745941 -77.566818 8,975 179 289 2880
2021-07-30 14:44:06 GMT 38.750782 -77.566895 8,850 179 290 3392
2021-07-30 14:44:00 GMT 38.757343 -77.566956 8,550 181 291 3840
2021-07-30 14:43:58 GMT 38.760178 -77.566940 8,325 182 293 3712
2021-07-30 14:43:54 GMT 38.764748 -77.566895 8,200 182 293 3776
2021-07-30 14:43:50 GMT 38.772049 -77.565758 6,200 179 293 2848
2021-07-30 14:43:49 GMT 38.774761 -77.565811 6,200 179 293 2848
2021-07-30 14:43:47 GMT 38.776119 -77.565826 6,200 179 293 2848
2021-07-30 14:43:45 GMT 38.778831 -77.565872 6,200 179 293 2848
2021-07-30 14:43:44 GMT 38.780182 -77.565887 6,200 179 293 2848
2021-07-30 14:43:43 GMT 38.781540 -77.565918 6,200 179 293 2848
2021-07-30 14:43:41 GMT 38.784248 -77.565964 6,200 179 293 2848
2021-07-30 14:43:40 GMT 38.785610 -77.565979 7,400 179 293 2848
2021-07-30 14:43:39 GMT 38.788319 -77.566032 6,200 179 293 2848
2021-07-30 14:43:37 GMT 38.789669 -77.566048 6,200 179 293 2848
2021-07-30 14:43:35 GMT 38.792389 -77.566093 6,200 179 293 2848
2021-07-30 14:43:34 GMT 38.793739 -77.566109 6,200 179 293 2784
2021-07-30 14:43:33 GMT 38.795101 -77.566139 6,200 179 293 2784
2021-07-30 14:43:31 GMT 38.797810 -77.566177 6,200 179 293 2784
2021-07-30 14:43:30 GMT 38.800522 -77.566223 6,200 179 293 2784
2021-07-30 14:43:28 GMT 38.801880 -77.566254 6,200 179 293 2784
2021-07-30 14:43:27 GMT 38.804588 -77.566292 6,200 179 293 2784
2021-07-30 14:43:25 GMT 38.805939 -77.566307 6,200 179 293 2784
2021-07-30 14:43:24 GMT 38.807301 -77.566330 6,200 179 293 2784
2021-07-30 14:43:23 GMT 38.810009 -77.566383 6,200 179 293 2784
2021-07-30 14:43:21 GMT 38.811371 -77.566399 6,200 179 293 2784
2021-07-30 14:43:20 GMT 38.812721 -77.566422 6,200 179 293 2784
2021-07-30 14:43:18 GMT 38.815170 -77.566147 6,000 178 299 2784
2021-07-30 14:43:16 GMT 38.817940 -77.566261 6,000 178 299 2784
2021-07-30 14:43:15 GMT 38.819328 -77.566322 6,000 178 299 2784
2021-07-30 14:43:13 GMT 38.822418 -77.566719 5,800 179 288 2784
2021-07-30 14:43:12 GMT 38.823761 -77.566742 5,800 179 288 2784
2021-07-30 14:43:10 GMT 38.826431 -77.566772 5,800 179 288 2784
2021-07-30 14:43:09 GMT 38.828178 -77.566833 5,400 179 281 2784
2021-07-30 14:43:08 GMT 38.830791 -77.566872 5,400 179 281 2784
2021-07-30 14:43:06 GMT 38.833549 -77.566994 5,400 179 279 2784
2021-07-30 14:43:03 GMT 38.836140 -77.567032 5,400 179 279 2784
2021-07-30 14:43:02 GMT 38.837429 -77.567047 5,400 179 279 2784
2021-07-30 14:43:01 GMT 38.838718 -77.567070 5,400 179 279 2784
2021-07-30 14:42:59 GMT 38.841511 -77.567123 5,100 180 275 2784
2021-07-30 14:42:58 GMT 38.844059 -77.567169 5,100 180 275 2784
2021-07-30 14:42:56 GMT 38.846680 -77.567780 5,100 181 272 2784
2021-07-30 14:42:54 GMT 38.847931 -77.567711 5,100 181 272 2784
2021-07-30 14:42:53 GMT 38.850449 -77.567574 5,100 181 272 2784
2021-07-30 14:42:51 GMT 38.851620 -77.567398 5,000 180 272 2784
2021-07-30 14:42:50 GMT 38.852879 -77.567360 5,000 180 272 2784
2021-07-30 14:42:49 GMT 38.854141 -77.567322 5,000 180 272 2784
2021-07-30 14:42:47 GMT 38.856659 -77.567238 5,000 180 272 2784
2021-07-30 14:42:45 GMT 38.859329 -77.566772 4,800 178 264 2784
2021-07-30 14:42:44 GMT 38.860561 -77.566803 4,800 178 264 2784
2021-07-30 14:42:43 GMT 38.861778 -77.566841 4,800 178 264 2784
2021-07-30 14:42:41 GMT 38.864109 -77.566528 4,800 176 267 2784
2021-07-30 14:42:40 GMT 38.865341 -77.566612 4,800 176 267 2784
2021-07-30 14:42:39 GMT 38.867809 -77.566772 4,800 176 267 2784
2021-07-30 14:42:37 GMT 38.868858 -77.566498 4,500 176 270 2784
2021-07-30 14:42:35 GMT 38.872601 -77.566833 4,500 176 270 2784
2021-07-30 14:42:32 GMT 38.874882 -77.566498 4,300 175 272 832
2021-07-30 14:42:31 GMT 38.876129 -77.566643 4,300 175 272 832
2021-07-30 14:42:30 GMT 38.878639 -77.566933 4,300 175 272 832
2021-07-30 14:42:28 GMT 38.879890 -77.566811 4,100 177 266 832
2021-07-30 14:42:27 GMT 38.881119 -77.566933 4,100 177 266 832
2021-07-30 14:42:25 GMT 38.883591 -77.567162 4,100 177 266 832
2021-07-30 14:42:24 GMT 38.884819 -77.567284 4,100 177 266 832
2021-07-30 14:42:23 GMT 38.886131 -77.567413 3,800 182 259 832
2021-07-30 14:42:21 GMT 38.888531 -77.567467 3,800 182 259 832
2021-07-30 14:42:20 GMT 38.889729 -77.567497 3,800 182 259 832
2021-07-30 14:42:17 GMT 38.893230 -77.568039 3,600 190 258 832
2021-07-30 14:42:15 GMT 38.895611 -77.567688 3,600 190 258 832
2021-07-30 14:42:14 GMT 38.896980 -77.568382 3,300 198 253 832
2021-07-30 14:42:13 GMT 38.899250 -77.567627 3,300 198 253 832
2021-07-30 14:42:11 GMT 38.900391 -77.567253 3,300 198 253 832
2021-07-30 14:42:09 GMT 38.902851 -77.567390 3,300 206 252 832
2021-07-30 14:42:07 GMT 38.904999 -77.566223 3,300 206 252 832
2021-07-30 14:42:05 GMT 38.907440 -77.565720 2,800 213 248 832
2021-07-30 14:42:04 GMT 38.908440 -77.564980 2,800 213 248 832
2021-07-30 14:42:03 GMT 38.910431 -77.563507 2,800 213 248 832
2021-07-30 14:42:01 GMT 38.911739 -77.563606 2,800 220 248 832
2021-07-30 14:42:00 GMT 38.912659 -77.562729 2,800 220 248 832
2021-07-30 14:41:59 GMT 38.914501 -77.560951 2,800 220 248 832
2021-07-30 14:41:57 GMT 38.915409 -77.560066 2,800 220 248 832
2021-07-30 14:41:55 GMT 38.917622 -77.559021 2,600 227 246 832
2021-07-30 14:41:54 GMT 38.919239 -77.556961 2,600 227 246 832
2021-07-30 14:41:52 GMT 38.920052 -77.555931 2,600 227 246 832
2021-07-30 14:41:51 GMT 38.921638 -77.555580 2,200 233 237 832
2021-07-30 14:41:49 GMT 38.922970 -77.553329 2,200 233 237 832
2021-07-30 14:41:48 GMT 38.923641 -77.552208 2,200 233 237 832
2021-07-30 14:41:46 GMT 38.925270 -77.549919 2,200 236 225 832
2021-07-30 14:41:45 GMT 38.925861 -77.548820 2,200 236 225 832
2021-07-30 14:41:43 GMT 38.927021 -77.546600 2,200 236 225 832
2021-07-30 14:41:42 GMT 38.927662 -77.545387 2,175 236 220 832
2021-07-30 14:41:41 GMT 38.928230 -77.544312 2,175 236 220 832
2021-07-30 14:41:39 GMT 38.929489 -77.541901 2,125 237 208 832
2021-07-30 14:41:38 GMT 38.930061 -77.540741 2,125 237 205 832
2021-07-30 14:41:37 GMT 38.930569 -77.539711 2,125 236 205 832
2021-07-30 14:41:36 GMT 38.931622 -77.537621 2,100 237 203 832
2021-07-30 14:41:34 GMT 38.932690 -77.535530 2,100 237 201 448
2021-07-30 14:41:32 GMT 38.933208 -77.534492 2,075 237 200 448
2021-07-30 14:41:30 GMT 38.934250 -77.532417 2,000 237 198 448
2021-07-30 14:41:29 GMT 38.934719 -77.531479 2,000 237 200 448
2021-07-30 14:41:27 GMT 38.935730 -77.529427 1,975 237 198 448
2021-07-30 14:41:26 GMT 38.936230 -77.528343 1,800 236 197 448
2021-07-30 14:41:25 GMT 38.936741 -77.527359 1,800 236 197 448
2021-07-30 14:41:23 GMT 38.937771 -77.525352 1,800 237 194 448
2021-07-30 14:41:21 GMT 38.938679 -77.523422 1,800 236 197 448
2021-07-30 14:41:20 GMT 38.939178 -77.522377 1,800 235 194 448
2021-07-30 14:41:19 GMT 38.940109 -77.520569 1,725 235 199 448
2021-07-30 14:41:17 GMT 38.940571 -77.519531 1,725 235 198 448
2021-07-30 14:41:15 GMT 38.941551 -77.517647 1,600 236 197 448
2021-07-30 14:41:14 GMT 38.942081 -77.516640 1,600 238 193 448
2021-07-30 14:41:13 GMT 38.943001 -77.514778 1,600 242 190 448
2021-07-30 14:41:11 GMT 38.943432 -77.513763 1,600 243 187 448
2021-07-30 14:41:10 GMT 38.943802 -77.512932 1,500 246 189 448
2021-07-30 14:41:08 GMT 38.944519 -77.510872 1,500 250 184 448
2021-07-30 14:41:07 GMT 38.944851 -77.509811 1,500 254 179 448
2021-07-30 14:41:05 GMT 38.945339 -77.507843 1,300 259 178 448
2021-07-30 14:41:03 GMT 38.945690 -77.505798 1,300 265 175 448
2021-07-30 14:41:02 GMT 38.945782 -77.504738 1,300 266 173 448
2021-07-30 14:41:00 GMT 38.945889 -77.502670 1,100 272 171 448
2021-07-30 14:40:59 GMT 38.945969 -77.501633 1,100 276 171 448
2021-07-30 14:40:57 GMT 38.945808 -77.499550 1,100 281 167 448
2021-07-30 14:40:56 GMT 38.945709 -77.498581 900 283 168 448
2021-07-30 14:40:55 GMT 38.945580 -77.497543 900 286 166 448
2021-07-30 14:40:53 GMT 38.945210 -77.495651 900 289 171 448
2021-07-30 14:40:52 GMT 38.944939 -77.494713 900 289 171 448
2021-07-30 14:40:50 GMT 38.944431 -77.492737 825 289 167 448
2021-07-30 14:40:49 GMT 38.944191 -77.491783 825 290 166 448
2021-07-30 14:40:47 GMT 38.943668 -77.489929 475 291 168 448
2021-07-30 14:40:46 GMT 38.943371 -77.489014 475 290 169 448
2021-07-30 14:40:45 GMT 38.943089 -77.488121 475 290 173 448
2021-07-30 14:40:42 GMT 38.942261 -77.485268 475 290 176 448
2021-07-30 14:40:41 GMT 38.941700 -77.483353 400 290 177 448
2021-07-30 14:40:39 GMT 38.941441 -77.482368 375 291 176 -224
2021-07-30 14:40:37 GMT 38.940842 -77.480431 350 290 171 320
2021-07-30 14:40:35 GMT 38.940289 -77.478569 350 290 168 320
2021-07-30 14:40:34 GMT 38.940010 -77.477631 350 290 164 320
2021-07-30 14:40:33 GMT 38.939770 -77.476700 350 291 161 320
2021-07-30 14:40:32 GMT 38.939499 -77.475800 350 291 156 352
2021-07-30 14:40:31 GMT 38.938961 -77.474068 350 290 149 -64
2021-07-30 14:40:29 GMT 38.938709 -77.473244 350 290 146 -448
2021-07-30 14:40:26 GMT 38.938042 -77.470818 350 291 137 -448
2021-07-30 14:40:25 GMT 38.937561 -77.469337 325 290 131 -448
2021-07-30 14:40:24 GMT 38.937351 -77.468597 325 290 127 -448
2021-07-30 14:40:22 GMT 38.937141 -77.467880 325 290 122 -448
2021-07-30 14:40:20 GMT 38.936741 -77.466530 0 289 114 0
2021-07-30 14:40:19 GMT 38.936378 -77.465248 0 290 109 0
2021-07-30 14:40:17 GMT 38.936199 -77.464638 0 290 104 0
2021-07-30 14:40:16 GMT 38.936050 -77.464058 0 291 101 0
2021-07-30 14:40:14 GMT 38.935711 -77.462936 0 291 92 0
2021-07-30 14:40:13 GMT 38.935398 -77.461906 0 291 83 0
2021-07-30 14:40:11 GMT 38.935261 -77.461441 0 290 79 0
2021-07-30 14:40:10 GMT 38.934990 -77.460579 0 290 70 0
2021-07-30 14:40:08 GMT 38.934879 -77.460152 0 290 64 0
2021-07-30 14:40:06 GMT 38.934662 -77.459450 0 290 58 0
2021-07-30 14:40:05 GMT 38.934471 -77.458771 0 290 46 0
2021-07-30 14:40:03 GMT 38.934391 -77.458488 0 291 42 0
2021-07-30 14:40:02 GMT 38.934299 -77.458214 0 290 35 0
2021-07-30 14:40:01 GMT 38.934189 -77.457779 0 293 27 0
2021-07-30 14:39:59 GMT 38.934120 -77.457588 0 290 22 0
2021-07-30 14:39:57 GMT 38.934029 -77.457298 0 290 17 0
2021-07-30 14:39:55 GMT 38.933979 -77.457077 0 292 13 0
2021-07-30 14:39:54 GMT 38.933949 -77.457031 0 291 13 0
2021-07-30 14:39:52 GMT 38.933922 -77.456863 0 296 13 0
2021-07-30 14:39:51 GMT 38.933899 -77.456787 0 299 14 0
2021-07-30 14:39:49 GMT 38.933842 -77.456657 0 290 14 0
2021-07-30 14:39:48 GMT 38.933800 -77.456581 0 281 13 0
2021-07-30 14:39:46 GMT 38.933781 -77.456444 0 272 12 0
2021-07-30 14:39:44 GMT 38.933762 -77.456306 0 249 12 0
2021-07-30 14:39:43 GMT 38.933750 -77.456230 0 237 11 0
2021-07-30 14:39:42 GMT 38.933788 -77.456100 0 224 11 0
2021-07-30 14:39:40 GMT 38.933819 -77.456047 0 217 11 0
2021-07-30 14:39:39 GMT 38.933849 -77.455994 0 210 11 0
2021-07-30 14:39:38 GMT 38.933880 -77.455940 0 203 12 0
2021-07-30 14:39:36 GMT 38.933971 -77.455879 0 200 13 0
2021-07-30 14:39:35 GMT 38.934029 -77.455849 0 200 13 0
2021-07-30 14:39:33 GMT 38.934151 -77.455788 0 202 12 0
2021-07-30 14:39:32 GMT 38.934200 -77.455780 0 204 12 0
2021-07-30 14:39:30 GMT 38.934299 -77.455719 0 203 12 0
2021-07-30 14:39:29 GMT 38.934349 -77.455688 0 201 12 0
2021-07-30 14:39:28 GMT 38.934460 -77.455627 0 201 11 0
2021-07-30 14:39:26 GMT 38.934502 -77.455612 0 200 12 0
2021-07-30 14:39:25 GMT 38.934608 -77.455559 0 203 11 0
2021-07-30 14:39:23 GMT 38.934650 -77.455544 0 198 13 0
2021-07-30 14:39:21 GMT 38.934780 -77.455467 0 199 12 0
2021-07-30 14:39:20 GMT 38.934830 -77.455452 0 199 11 0
2021-07-30 14:39:18 GMT 38.934940 -77.455406 0 200 10 0
2021-07-30 14:39:17 GMT 38.934978 -77.455383 0 199 11 0
2021-07-30 14:39:15 GMT 38.935070 -77.455353 0 204 14 0
2021-07-30 14:39:14 GMT 38.935131 -77.455322 0 204 14 0
2021-07-30 14:39:12 GMT 38.935249 -77.455254 0 202 15 0
2021-07-30 14:39:11 GMT 38.935310 -77.455208 0 200 16 0
2021-07-30 14:39:09 GMT 38.935440 -77.455162 0 206 17 0
2021-07-30 14:39:08 GMT 38.935501 -77.455109 0 202 18 0
2021-07-30 14:39:06 GMT 38.935631 -77.455040 0 194 20 0
2021-07-30 14:39:05 GMT 38.935711 -77.454979 0 185 20 0
2021-07-30 14:39:04 GMT 38.935890 -77.454964 0 176 19 0
2021-07-30 14:39:02 GMT 38.936001 -77.454933 0 164 17 0
2021-07-30 14:39:01 GMT 38.936081 -77.454933 0 155 17 0
2021-07-30 14:38:59 GMT 38.936241 -77.454987 0 144 17 0
2021-07-30 14:38:58 GMT 38.936378 -77.455078 0 129 17 0
2021-07-30 14:38:56 GMT 38.936432 -77.455147 0 127 17 0
2021-07-30 14:38:55 GMT 38.936470 -77.455254 0 132 17 0
2021-07-30 14:38:53 GMT 38.936569 -77.455391 0 128 17 0
2021-07-30 14:38:52 GMT 38.936630 -77.455490 0 128 16 0
2021-07-30 14:38:51 GMT 38.936668 -77.455544 0 123 18 0
2021-07-30 14:38:49 GMT 38.936821 -77.455811 0 137 16 0
2021-07-30 14:38:47 GMT 38.936878 -77.455872 0 140 16 0
2021-07-30 14:38:46 GMT 38.936981 -77.456017 0 158 14 0
2021-07-30 14:38:44 GMT 38.937031 -77.456070 0 166 15 0
2021-07-30 14:38:42 GMT 38.937149 -77.456146 0 176 18 0
2021-07-30 14:38:41 GMT 38.937241 -77.456169 0 179 17 0
2021-07-30 14:38:39 GMT 38.937401 -77.456161 0 178 16 0
2021-07-30 14:38:38 GMT 38.937481 -77.456177 0 181 15 0
2021-07-30 14:38:37 GMT 38.937611 -77.456169 0 179 16 0
2021-07-30 14:38:35 GMT 38.937698 -77.456169 0 182 15 0
2021-07-30 14:38:34 GMT 38.937740 -77.456161 0 178 17 0
2021-07-30 14:38:32 GMT 38.937908 -77.456169 0 181 14 0
2021-07-30 14:38:31 GMT 38.938049 -77.456161 0 181 14 0
2021-07-30 14:38:29 GMT 38.938099 -77.456161 0 181 15 0
2021-07-30 14:38:28 GMT 38.938251 -77.456146 0 178 14 0
2021-07-30 14:38:26 GMT 38.938309 -77.456169 0 183 16 0
2021-07-30 14:38:24 GMT 38.938461 -77.456139 0 177 14 0
2021-07-30 14:38:23 GMT 38.938530 -77.456139 0 174 14 0
2021-07-30 14:38:22 GMT 38.938641 -77.456146 0 175 15 0
2021-07-30 14:38:20 GMT 38.938721 -77.456161 0 175 14 0
2021-07-30 14:38:18 GMT 38.938862 -77.456200 0 188 14 0
2021-07-30 14:38:17 GMT 38.938919 -77.456169 0 181 14 0
2021-07-30 14:38:16 GMT 38.938992 -77.456177 0 184 14 0
2021-07-30 14:38:14 GMT 38.939121 -77.456161 0 181 13 0
2021-07-30 14:38:13 GMT 38.939159 -77.456139 0 176 15 0
2021-07-30 14:38:12 GMT 38.939308 -77.456169 0 187 13 0
2021-07-30 14:38:10 GMT 38.939362 -77.456177 0 188 14 0
2021-07-30 14:38:09 GMT 38.939442 -77.456139 0 180 13 0
2021-07-30 14:38:07 GMT 38.939541 -77.456123 0 175 14 0
2021-07-30 14:38:06 GMT 38.939678 -77.456146 0 181 13 0
2021-07-30 14:38:04 GMT 38.939739 -77.456131 0 176 12 0
2021-07-30 14:38:03 GMT 38.939800 -77.456123 0 175 12 0
2021-07-30 14:38:01 GMT 38.939941 -77.456146 0 179 11 0
2021-07-30 14:38:00 GMT 38.939980 -77.456146 0 181 13 0
2021-07-30 14:37:58 GMT 38.940109 -77.456139 0 180 13 0
2021-07-30 14:37:57 GMT 38.940170 -77.456161 0 184 13 0
2021-07-30 14:37:56 GMT 38.940300 -77.456139 0 178 14 0
2021-07-30 14:37:54 GMT 38.940380 -77.456139 0 180 12 0
2021-07-30 14:37:53 GMT 38.940491 -77.456146 0 183 13 0
2021-07-30 14:37:51 GMT 38.940552 -77.456146 0 182 13 0
2021-07-30 14:37:50 GMT 38.940670 -77.456139 0 183 13 0
2021-07-30 14:37:48 GMT 38.940731 -77.456131 0 180 13 0
2021-07-30 14:37:47 GMT 38.940788 -77.456131 0 183 13 0
2021-07-30 14:37:45 GMT 38.940899 -77.456100 0 175 15 0
2021-07-30 14:37:44 GMT 38.940971 -77.456093 0 171 15 0
2021-07-30 14:37:43 GMT 38.941109 -77.456131 0 179 14 0
2021-07-30 14:37:41 GMT 38.941181 -77.456139 0 179 13 0
2021-07-30 14:37:40 GMT 38.941238 -77.456131 0 179 12 0
2021-07-30 14:37:38 GMT 38.941349 -77.456131 0 178 12 0
2021-07-30 14:37:37 GMT 38.941448 -77.456131 0 178 14 0
2021-07-30 14:37:35 GMT 38.941528 -77.456139 0 180 13 0
2021-07-30 14:37:34 GMT 38.941589 -77.456131 0 181 13 0
2021-07-30 14:37:33 GMT 38.941700 -77.456146 0 187 14 0
2021-07-30 14:37:31 GMT 38.941769 -77.456131 0 185 13 0
2021-07-30 14:37:30 GMT 38.941898 -77.456108 0 179 12 0
2021-07-30 14:37:28 GMT 38.941952 -77.456100 0 176 13 0
2021-07-30 14:37:26 GMT 38.942081 -77.456123 0 181 13 0
2021-07-30 14:37:24 GMT 38.942188 -77.456100 0 178 13 0
2021-07-30 14:37:22 GMT 38.942322 -77.456100 0 176 11 0
2021-07-30 14:37:20 GMT 38.942429 -77.456093 0 174 12 0
2021-07-30 14:37:19 GMT 38.942490 -77.456123 0 178 12 0
2021-07-30 14:37:17 GMT 38.942600 -77.456139 0 181 11 0
2021-07-30 14:37:16 GMT 38.942661 -77.456131 0 180 12 0
2021-07-30 14:37:15 GMT 38.942711 -77.456131 0 180 13 0
2021-07-30 14:37:13 GMT 38.942829 -77.456131 0 183 12 0
2021-07-30 14:37:11 GMT 38.942940 -77.456123 0 183 13 0
2021-07-30 14:37:10 GMT 38.943008 -77.456100 0 179 13 0
2021-07-30 14:37:08 GMT 38.943130 -77.456093 0 175 13 0
2021-07-30 14:37:07 GMT 38.943192 -77.456078 0 174 13 0
2021-07-30 14:37:06 GMT 38.943272 -77.456108 0 180 11 0
2021-07-30 14:37:04 GMT 38.943359 -77.456108 0 180 12 0
2021-07-30 14:37:03 GMT 38.943470 -77.456108 0 178 13 0
2021-07-30 14:37:02 GMT 38.943539 -77.456108 0 179 12 0
2021-07-30 14:37:00 GMT 38.943649 -77.456108 0 180 11 0
2021-07-30 14:36:58 GMT 38.943691 -77.456108 0 181 12 0
2021-07-30 14:36:57 GMT 38.943741 -77.456100 0 177 13 0
2021-07-30 14:36:56 GMT 38.943851 -77.456139 0 187 14 0
2021-07-30 14:36:54 GMT 38.943920 -77.456131 0 187 13 0
2021-07-30 14:36:53 GMT 38.944061 -77.456093 0 177 11 0
2021-07-30 14:36:51 GMT 38.944099 -77.456078 0 175 12 0
2021-07-30 14:36:49 GMT 38.944221 -77.456100 0 184 11 0
2021-07-30 14:36:47 GMT 38.944309 -77.456100 0 183 12 0
2021-07-30 14:36:46 GMT 38.944359 -77.456093 0 180 13 0
2021-07-30 14:36:44 GMT 38.944481 -77.456100 0 185 13 0
2021-07-30 14:36:43 GMT 38.944530 -77.456100 0 186 14 0
2021-07-30 14:36:41 GMT 38.944660 -77.456062 0 179 12 0
2021-07-30 14:36:40 GMT 38.944778 -77.456070 0 178 10 0
2021-07-30 14:36:38 GMT 38.944832 -77.456047 0 175 11 0
2021-07-30 14:36:37 GMT 38.944908 -77.456070 0 180 12 0
2021-07-30 14:36:35 GMT 38.944962 -77.456070 0 181 13 0
2021-07-30 14:36:34 GMT 38.945019 -77.456070 0 183 12 0
2021-07-30 14:36:33 GMT 38.945091 -77.456078 0 182 10 0
2021-07-30 14:36:31 GMT 38.945160 -77.456047 0 173 14 0
2021-07-30 14:36:30 GMT 38.945278 -77.456078 0 179 12 0
2021-07-30 14:36:28 GMT 38.945339 -77.456070 0 179 12 0
2021-07-30 14:36:27 GMT 38.945400 -77.456078 0 182 11 0
2021-07-30 14:36:25 GMT 38.945499 -77.456093 0 185 12 0
2021-07-30 14:36:24 GMT 38.945560 -77.456062 0 180 12 0
2021-07-30 14:36:22 GMT 38.945671 -77.456062 0 179 11 0
2021-07-30 14:36:21 GMT 38.945721 -77.456062 0 176 11 0
2021-07-30 14:36:19 GMT 38.945839 -77.456062 0 176 10 0
2021-07-30 14:36:18 GMT 38.945869 -77.456070 0 181 11 0
2021-07-30 14:36:17 GMT 38.945900 -77.456093 0 187 13 0
2021-07-30 14:36:15 GMT 38.946030 -77.456093 0 186 12 0
2021-07-30 14:36:13 GMT 38.946152 -77.456047 0 177 11 0
2021-07-30 14:36:12 GMT 38.946201 -77.456009 0 166 12 0
2021-07-30 14:36:10 GMT 38.946320 -77.456047 0 175 10 0
2021-07-30 14:36:09 GMT 38.946350 -77.456078 0 184 10 0
2021-07-30 14:36:07 GMT 38.946419 -77.456100 0 187 14 0
2021-07-30 14:36:06 GMT 38.946548 -77.456062 0 179 13 0
2021-07-30 14:36:04 GMT 38.946602 -77.456062 0 178 14 0
2021-07-30 14:36:03 GMT 38.946671 -77.456039 0 173 14 0
2021-07-30 14:36:01 GMT 38.946800 -77.456047 0 178 12 0
2021-07-30 14:35:59 GMT 38.946892 -77.456062 0 188 13 0
2021-07-30 14:35:57 GMT 38.946991 -77.456062 0 202 14 0
2021-07-30 14:35:56 GMT 38.947060 -77.456039 0 211 13 0
2021-07-30 14:35:54 GMT 38.947170 -77.455978 0 231 13 0
2021-07-30 14:35:53 GMT 38.947231 -77.455902 0 237 11 0
2021-07-30 14:35:51 GMT 38.947300 -77.455811 0 250 13 0
2021-07-30 14:35:50 GMT 38.947338 -77.455757 0 262 15 0
2021-07-30 14:35:48 GMT 38.947369 -77.455582 0 270 15 0
2021-07-30 14:35:47 GMT 38.947369 -77.455513 0 271 16 0
2021-07-30 14:35:46 GMT 38.947380 -77.455399 0 277 16 0
2021-07-30 14:35:44 GMT 38.947361 -77.455238 0 273 18 0
2021-07-30 14:35:42 GMT 38.947369 -77.455040 0 275 19 0
2021-07-30 14:35:40 GMT 38.947319 -77.454826 0 268 19 0
2021-07-30 14:35:38 GMT 38.947311 -77.454597 0 266 18 0
2021-07-30 14:35:36 GMT 38.947330 -77.454391 0 267 19 0
2021-07-30 14:35:35 GMT 38.947330 -77.454277 0 267 19 0
2021-07-30 14:35:34 GMT 38.947338 -77.454163 0 270 18 0
2021-07-30 14:35:33 GMT 38.947350 -77.454048 0 272 18 0
2021-07-30 14:35:31 GMT 38.947319 -77.453827 0 265 18 0
2021-07-30 14:33:59 GMT 38.947140 -77.442001 0 314 6 0
2021-07-30 14:33:58 GMT 38.947121 -77.441978 0 314 6 0
2021-07-30 14:33:57 GMT 38.947090 -77.441933 0 314 6 0
2021-07-30 14:33:55 GMT 38.947071 -77.441910 0 314 6 0
2021-07-30 14:33:53 GMT 38.947041 -77.441856 0 314 6 0
2021-07-30 14:33:52 GMT 38.947021 -77.441833 0 314 6 0
2021-07-30 14:33:50 GMT 38.946991 -77.441780 0 314 6 0
2021-07-30 14:33:49 GMT 38.946949 -77.441727 0 314 6 0
2021-07-30 14:33:48 GMT 38.946941 -77.441711 0 314 6 0
2021-07-30 14:33:46 GMT 38.946918 -77.441681 0 314 6 0
2021-07-30 14:33:44 GMT 38.946892 -77.441628 0 314 6 0
2021-07-30 14:33:43 GMT 38.946869 -77.441612 0 314 6 0
2021-07-30 14:33:42 GMT 38.946850 -77.441582 0 314 6 0
2021-07-30 14:33:40 GMT 38.946819 -77.441528 0 314 6 0
2021-07-30 14:33:39 GMT 38.946789 -77.441483 0 314 6 0
2021-07-30 14:33:37 GMT 38.946770 -77.441460 0 314 6 0
2021-07-30 14:33:36 GMT 38.946751 -77.441429 0 314 6 0
2021-07-30 14:33:35 GMT 38.946720 -77.441383 0 314 6 0
2021-07-30 14:33:33 GMT 38.946701 -77.441360 0 314 6 0
2021-07-30 14:33:32 GMT 38.946709 -77.441330 0 315 6 0
2021-07-30 14:33:30 GMT 38.946701 -77.441292 0 316 5 0
2021-07-30 14:33:28 GMT 38.946678 -77.441238 0 319 5 0
2021-07-30 14:33:27 GMT 38.946671 -77.441223 0 320 5 0
2021-07-30 14:33:26 GMT 38.946651 -77.441193 0 322 5 0
2021-07-30 14:33:25 GMT 38.946651 -77.441177 0 323 7 0
2021-07-30 14:33:23 GMT 38.946590 -77.441116 0 322 5 0
2021-07-30 14:33:22 GMT 38.946548 -77.441101 0 319 4 0
2021-07-30 14:33:21 GMT 38.946522 -77.441078 0 306 4 0
2021-07-30 14:33:19 GMT 38.946522 -77.441071 0 300 5 0
2021-07-30 14:33:17 GMT 38.946468 -77.441017 0 289 3 0
2021-07-30 14:33:16 GMT 38.946468 -77.441010 0 289 4 0
2021-07-30 14:33:15 GMT 38.946449 -77.440964 0 298 3 0
2021-07-30 14:33:13 GMT 38.946449 -77.440933 0 299 3 0
2021-07-30 14:33:12 GMT 38.946419 -77.440910 0 302 3 0
2021-07-30 14:33:10 GMT 38.946400 -77.440910 0 320 5 0
2021-07-30 14:33:09 GMT 38.946411 -77.440903 0 8 5 0
2021-07-30 14:33:07 GMT 38.946419 -77.440788 0 8 0 0
2021-07-30 14:33:05 GMT 38.946449 -77.440758 0 10 1 0
2021-07-30 14:33:03 GMT 38.946430 -77.440758 0 13 1 0
2021-07-30 14:33:02 GMT 38.946430 -77.440750 0 16 1 0
2021-07-30 14:33:01 GMT 38.946430 -77.440720 0 19 1 0
2021-07-30 14:32:59 GMT 38.946419 -77.440727 0 22 2 0
2021-07-30 14:32:58 GMT 38.946430 -77.440712 0 22 1 0
2021-07-30 14:32:57 GMT 38.946491 -77.440681 0 22 0 0
2021-07-30 14:32:55 GMT 38.946480 -77.440681 0 22 0 0
2021-07-30 14:32:52 GMT 38.946491 -77.440666 0 22 0 0
2021-07-30 14:32:50 GMT 38.946491 -77.440666 0 22 0 0
2021-07-30 14:32:48 GMT 38.946491 -77.440666 0 22 0 0
2021-07-30 14:32:47 GMT 38.946499 -77.440659 0 22 0 0
2021-07-30 14:32:46 GMT 38.946491 -77.440666 0 22 0 0
2021-07-30 14:32:42 GMT 38.946480 -77.440666 0 22 0 0
2021-07-30 14:32:41 GMT 38.946499 -77.440681 0 22 0 0
2021-07-30 14:32:40 GMT 38.946480 -77.440681 0 22 0 0
2021-07-30 14:32:37 GMT 38.946468 -77.440689 0 22 0 0
2021-07-30 14:32:35 GMT 38.946468 -77.440720 0 28 1 0
2021-07-30 14:32:34 GMT 38.946468 -77.440712 0 28 1 0
2021-07-30 14:32:32 GMT 38.946468 -77.440681 0 28 0 0
2021-07-30 14:32:31 GMT 38.946461 -77.440697 0 27 0 0
2021-07-30 14:32:30 GMT 38.946480 -77.440689 0 27 0 0
2021-07-30 14:32:27 GMT 38.946480 -77.440689 0 27 1 0
2021-07-30 14:32:26 GMT 38.946449 -77.440689 0 27 0 0
2021-07-30 14:32:24 GMT 38.946480 -77.440659 0 29 0 0
2021-07-30 14:32:22 GMT 38.946480 -77.440659 0 29 0 0
2021-07-30 14:32:20 GMT 38.946499 -77.440666 0 29 0 0
2021-07-30 14:32:18 GMT 38.946499 -77.440659 0 29 0 0
2021-07-30 14:32:17 GMT 38.946522 -77.440651 0 29 1 0
2021-07-30 14:32:15 GMT 38.946499 -77.440659 0 29 0 0
2021-07-30 14:32:13 GMT 38.946480 -77.440666 0 29 0 0
2021-07-30 14:32:12 GMT 38.946468 -77.440666 0 29 0 0
2021-07-30 14:32:11 GMT 38.946468 -77.440681 0 29 0 0
2021-07-30 14:32:09 GMT 38.946449 -77.440697 0 29 0 0
2021-07-30 14:32:08 GMT 38.946449 -77.440697 0 29 0 0
2021-07-30 14:32:05 GMT 38.946461 -77.440681 0 29 0 0
2021-07-30 14:32:03 GMT 38.946461 -77.440681 0 29 0 0
2021-07-30 14:32:02 GMT 38.946468 -77.440666 0 29 0 0
2021-07-30 14:32:00 GMT 38.946468 -77.440681 0 29 0 0
2021-07-30 14:31:57 GMT 38.946461 -77.440681 0 29 0 0
2021-07-30 14:31:55 GMT 38.946461 -77.440689 0 29 0 0
2021-07-30 14:31:50 GMT 38.946461 -77.440681 0 29 0
2021-07-30 14:31:47 GMT 38.946461 -77.440689 0 29 0
2021-07-30 14:31:46 GMT 38.946461 -77.440681 0 29 0
2021-07-30 14:31:44 GMT 38.946461 -77.440697 0 29 0
2021-07-30 14:31:41 GMT 38.946468 -77.440681 0 30 0
2021-07-30 14:31:39 GMT 38.946461 -77.440681 0 31 0
2021-07-30 14:31:34 GMT 38.946449 -77.440666 0 31 1
2021-07-30 14:31:32 GMT 38.946449 -77.440651 0 32 0
2021-07-30 14:31:30 GMT 38.946442 -77.440666 0 23 0
2021-07-30 14:31:28 GMT 38.946449 -77.440681 0 23 0
2021-07-30 14:31:26 GMT 38.946461 -77.440689 0 23 1
2021-07-30 14:31:25 GMT 38.946461 -77.440666 0 23 0
2021-07-30 14:31:23 GMT 38.946461 -77.440651 0 22 2
2021-07-30 14:31:22 GMT 38.946449 -77.440666 0 20 1
2021-07-30 14:31:20 GMT 38.946449 -77.440697 0 18 1
2021-07-30 14:31:19 GMT 38.946449 -77.440720 0 18 1
2021-07-30 14:31:18 GMT 38.946468 -77.440689 0 18 3
2021-07-30 14:31:16 GMT 38.946468 -77.440712 0 18 3
2021-07-30 14:31:15 GMT 38.946461 -77.440689 0 16 3
2021-07-30 14:31:13 GMT 38.946468 -77.440727 0 10 4
2021-07-30 14:31:12 GMT 38.946442 -77.440727 0 14 4
2021-07-30 14:31:11 GMT 38.946480 -77.440681 0 13 7
2021-07-30 14:31:09 GMT 38.946430 -77.440727 0 10 5

Making use of Plane Finder data

You are free to use the raw flight data, aircraft information and images provided in this report for your own purposes provided the data is correctly attributed to Plane Finder. We ask that you please credit Plane Finder and link to planefinder.net in close proximity to the content.

Optionally one of the following logos (no smaller then 150x24px) can be used and must link to planefinder.net

Embedding the Plane Finder map

You are welcome to embed the Plane Finder playback map on your website to offer visitors a more interactive experience. We suggest using the following HTML code:

<iframe src="//planefinder.net/data/report/UA1154-N69813-7700-squawk-2021-07-30/map" width="800" height="600" seamless="seamless"></iframe>

Where our data comes from

Plane Finder has a global network of data feeds and antenna radars that receive data broadcast directly from aircraft. The primary technologies used are ADS-B and MLAT. We also show feeds from the FAA and a FLARM glider feed.

Click here to find out more about the Plane Finder network.

How we collect our data